<?xml version="1.0" encoding="UTF-8" standalone="no" ?>
<gpx xmlns="http://www.topografix.com/GPX/1/1" xmlns:xsi="http://www.w3.org/2001/XMLSchema-instance" xsi:schemaLocation="http://www.topografix.com/GPX/1/1 http://www.topografix.com/GPX/1/1/gpx.xsd" version="1.1" creator="VisuGPX - https://www.visugpx.com">
  <metadata>
    <name>Rando des monts jura depuis lelex étape 2</name>
    <desc><![CDATA[2 éme étape de la rando des monts jura en 2 étapes en autonomie complète (retour sur Lelex).]]></desc>
  </metadata>
  <trk>
    <name><![CDATA[02-AOU-13 10:58:31]]></name>
    <trkseg>
      <trkpt lat="46.34051" lon="6.00289">
        <ele>1592.08</ele>
        <time>2013-08-01T16:27:51Z</time>
      </trkpt>
      <trkpt lat="46.34051" lon="6.0029">
        <ele>1592.56</ele>
        <time>2013-08-01T16:28:01Z</time>
      </trkpt>
      <trkpt lat="46.34051" lon="6.0029">
        <ele>1591.12</ele>
        <time>2013-08-01T16:28:02Z</time>
      </trkpt>
      <trkpt lat="46.34052" lon="6.00291">
        <ele>1513.73</ele>
        <time>2013-08-02T05:31:51Z</time>
      </trkpt>
      <trkpt lat="46.34047" lon="6.00285">
        <ele>1513.73</ele>
        <time>2013-08-02T05:32:01Z</time>
      </trkpt>
      <trkpt lat="46.34048" lon="6.00283">
        <ele>1514.21</ele>
        <time>2013-08-02T05:32:11Z</time>
      </trkpt>
      <trkpt lat="46.34049" lon="6.00282">
        <ele>1513.73</ele>
        <time>2013-08-02T05:32:21Z</time>
      </trkpt>
      <trkpt lat="46.34049" lon="6.00281">
        <ele>1514.69</ele>
        <time>2013-08-02T05:32:31Z</time>
      </trkpt>
      <trkpt lat="46.34049" lon="6.00281">
        <ele>1526.23</ele>
        <time>2013-08-02T05:32:41Z</time>
      </trkpt>
      <trkpt lat="46.3405" lon="6.00285">
        <ele>1544.5</ele>
        <time>2013-08-02T05:32:51Z</time>
      </trkpt>
      <trkpt lat="46.34052" lon="6.00282">
        <ele>1557.47</ele>
        <time>2013-08-02T05:33:01Z</time>
      </trkpt>
      <trkpt lat="46.34052" lon="6.00282">
        <ele>1566.12</ele>
        <time>2013-08-02T05:33:11Z</time>
      </trkpt>
      <trkpt lat="46.34051" lon="6.00282">
        <ele>1572.37</ele>
        <time>2013-08-02T05:33:21Z</time>
      </trkpt>
      <trkpt lat="46.34051" lon="6.00282">
        <ele>1577.18</ele>
        <time>2013-08-02T05:33:31Z</time>
      </trkpt>
      <trkpt lat="46.34049" lon="6.00282">
        <ele>1580.54</ele>
        <time>2013-08-02T05:33:41Z</time>
      </trkpt>
      <trkpt lat="46.3405" lon="6.00282">
        <ele>1582.47</ele>
        <time>2013-08-02T05:33:51Z</time>
      </trkpt>
      <trkpt lat="46.34049" lon="6.00282">
        <ele>1583.91</ele>
        <time>2013-08-02T05:34:01Z</time>
      </trkpt>
      <trkpt lat="46.3405" lon="6.00281">
        <ele>1585.83</ele>
        <time>2013-08-02T05:34:11Z</time>
      </trkpt>
      <trkpt lat="46.3405" lon="6.00281">
        <ele>1585.83</ele>
        <time>2013-08-02T05:34:21Z</time>
      </trkpt>
      <trkpt lat="46.3405" lon="6.00282">
        <ele>1586.79</ele>
        <time>2013-08-02T05:34:31Z</time>
      </trkpt>
      <trkpt lat="46.3405" lon="6.0028">
        <ele>1589.2</ele>
        <time>2013-08-02T05:34:41Z</time>
      </trkpt>
      <trkpt lat="46.3405" lon="6.0028">
        <ele>1588.24</ele>
        <time>2013-08-02T05:34:51Z</time>
      </trkpt>
      <trkpt lat="46.3405" lon="6.00281">
        <ele>1589.2</ele>
        <time>2013-08-02T05:35:01Z</time>
      </trkpt>
      <trkpt lat="46.34051" lon="6.00282">
        <ele>1588.24</ele>
        <time>2013-08-02T05:35:11Z</time>
      </trkpt>
      <trkpt lat="46.3405" lon="6.00281">
        <ele>1589.2</ele>
        <time>2013-08-02T05:35:21Z</time>
      </trkpt>
      <trkpt lat="46.34049" lon="6.00279">
        <ele>1589.2</ele>
        <time>2013-08-02T05:35:31Z</time>
      </trkpt>
      <trkpt lat="46.3405" lon="6.00282">
        <ele>1588.72</ele>
        <time>2013-08-02T05:35:41Z</time>
      </trkpt>
      <trkpt lat="46.34046" lon="6.00288">
        <ele>1588.72</ele>
        <time>2013-08-02T05:35:51Z</time>
      </trkpt>
      <trkpt lat="46.34047" lon="6.00281">
        <ele>1590.16</ele>
        <time>2013-08-02T05:36:01Z</time>
      </trkpt>
      <trkpt lat="46.34046" lon="6.00293">
        <ele>1591.6</ele>
        <time>2013-08-02T05:36:11Z</time>
      </trkpt>
      <trkpt lat="46.34035" lon="6.00291">
        <ele>1590.16</ele>
        <time>2013-08-02T05:36:21Z</time>
      </trkpt>
      <trkpt lat="46.34024" lon="6.00284">
        <ele>1589.2</ele>
        <time>2013-08-02T05:36:31Z</time>
      </trkpt>
      <trkpt lat="46.34018" lon="6.00283">
        <ele>1588.72</ele>
        <time>2013-08-02T05:36:41Z</time>
      </trkpt>
      <trkpt lat="46.34007" lon="6.00282">
        <ele>1589.2</ele>
        <time>2013-08-02T05:36:51Z</time>
      </trkpt>
      <trkpt lat="46.33999" lon="6.00276">
        <ele>1591.6</ele>
        <time>2013-08-02T05:37:01Z</time>
      </trkpt>
      <trkpt lat="46.33989" lon="6.00277">
        <ele>1593.04</ele>
        <time>2013-08-02T05:37:11Z</time>
      </trkpt>
      <trkpt lat="46.33982" lon="6.00281">
        <ele>1594.48</ele>
        <time>2013-08-02T05:37:21Z</time>
      </trkpt>
      <trkpt lat="46.33974" lon="6.00284">
        <ele>1597.37</ele>
        <time>2013-08-02T05:37:31Z</time>
      </trkpt>
      <trkpt lat="46.3397" lon="6.00279">
        <ele>1599.29</ele>
        <time>2013-08-02T05:37:41Z</time>
      </trkpt>
      <trkpt lat="46.33965" lon="6.00279">
        <ele>1601.21</ele>
        <time>2013-08-02T05:37:51Z</time>
      </trkpt>
      <trkpt lat="46.33959" lon="6.00282">
        <ele>1602.17</ele>
        <time>2013-08-02T05:38:01Z</time>
      </trkpt>
      <trkpt lat="46.33954" lon="6.00282">
        <ele>1603.62</ele>
        <time>2013-08-02T05:38:11Z</time>
      </trkpt>
      <trkpt lat="46.33953" lon="6.00282">
        <ele>1604.58</ele>
        <time>2013-08-02T05:38:21Z</time>
      </trkpt>
      <trkpt lat="46.33954" lon="6.00283">
        <ele>1606.02</ele>
        <time>2013-08-02T05:38:31Z</time>
      </trkpt>
      <trkpt lat="46.33946" lon="6.00281">
        <ele>1604.58</ele>
        <time>2013-08-02T05:38:41Z</time>
      </trkpt>
      <trkpt lat="46.33936" lon="6.00284">
        <ele>1604.58</ele>
        <time>2013-08-02T05:38:51Z</time>
      </trkpt>
      <trkpt lat="46.3393" lon="6.00281">
        <ele>1604.1</ele>
        <time>2013-08-02T05:39:01Z</time>
      </trkpt>
      <trkpt lat="46.33918" lon="6.00278">
        <ele>1603.14</ele>
        <time>2013-08-02T05:39:11Z</time>
      </trkpt>
      <trkpt lat="46.33907" lon="6.00276">
        <ele>1602.66</ele>
        <time>2013-08-02T05:39:21Z</time>
      </trkpt>
      <trkpt lat="46.33897" lon="6.00266">
        <ele>1602.17</ele>
        <time>2013-08-02T05:39:31Z</time>
      </trkpt>
      <trkpt lat="46.33886" lon="6.00263">
        <ele>1602.66</ele>
        <time>2013-08-02T05:39:41Z</time>
      </trkpt>
      <trkpt lat="46.33882" lon="6.00254">
        <ele>1604.58</ele>
        <time>2013-08-02T05:39:51Z</time>
      </trkpt>
      <trkpt lat="46.33874" lon="6.00252">
        <ele>1604.1</ele>
        <time>2013-08-02T05:40:01Z</time>
      </trkpt>
      <trkpt lat="46.33863" lon="6.00247">
        <ele>1603.14</ele>
        <time>2013-08-02T05:40:11Z</time>
      </trkpt>
      <trkpt lat="46.33851" lon="6.00239">
        <ele>1602.17</ele>
        <time>2013-08-02T05:40:21Z</time>
      </trkpt>
      <trkpt lat="46.33844" lon="6.00226">
        <ele>1603.14</ele>
        <time>2013-08-02T05:40:31Z</time>
      </trkpt>
      <trkpt lat="46.33836" lon="6.0022">
        <ele>1601.69</ele>
        <time>2013-08-02T05:40:41Z</time>
      </trkpt>
      <trkpt lat="46.33826" lon="6.00224">
        <ele>1599.77</ele>
        <time>2013-08-02T05:40:51Z</time>
      </trkpt>
      <trkpt lat="46.33815" lon="6.00222">
        <ele>1599.29</ele>
        <time>2013-08-02T05:41:01Z</time>
      </trkpt>
      <trkpt lat="46.33805" lon="6.0022">
        <ele>1601.21</ele>
        <time>2013-08-02T05:41:11Z</time>
      </trkpt>
      <trkpt lat="46.33793" lon="6.00218">
        <ele>1603.14</ele>
        <time>2013-08-02T05:41:21Z</time>
      </trkpt>
      <trkpt lat="46.33781" lon="6.00217">
        <ele>1601.69</ele>
        <time>2013-08-02T05:41:31Z</time>
      </trkpt>
      <trkpt lat="46.33772" lon="6.00216">
        <ele>1603.14</ele>
        <time>2013-08-02T05:41:41Z</time>
      </trkpt>
      <trkpt lat="46.33761" lon="6.00214">
        <ele>1603.14</ele>
        <time>2013-08-02T05:41:51Z</time>
      </trkpt>
      <trkpt lat="46.33752" lon="6.00204">
        <ele>1601.21</ele>
        <time>2013-08-02T05:42:01Z</time>
      </trkpt>
      <trkpt lat="46.33741" lon="6.002">
        <ele>1600.73</ele>
        <time>2013-08-02T05:42:11Z</time>
      </trkpt>
      <trkpt lat="46.3373" lon="6.00194">
        <ele>1598.33</ele>
        <time>2013-08-02T05:42:21Z</time>
      </trkpt>
      <trkpt lat="46.33718" lon="6.0019">
        <ele>1596.89</ele>
        <time>2013-08-02T05:42:31Z</time>
      </trkpt>
      <trkpt lat="46.33705" lon="6.00187">
        <ele>1599.29</ele>
        <time>2013-08-02T05:42:41Z</time>
      </trkpt>
      <trkpt lat="46.33695" lon="6.00187">
        <ele>1599.77</ele>
        <time>2013-08-02T05:42:51Z</time>
      </trkpt>
      <trkpt lat="46.33687" lon="6.00185">
        <ele>1604.1</ele>
        <time>2013-08-02T05:43:01Z</time>
      </trkpt>
      <trkpt lat="46.33679" lon="6.00184">
        <ele>1601.69</ele>
        <time>2013-08-02T05:43:11Z</time>
      </trkpt>
      <trkpt lat="46.33668" lon="6.00186">
        <ele>1602.66</ele>
        <time>2013-08-02T05:43:21Z</time>
      </trkpt>
      <trkpt lat="46.33667" lon="6.00189">
        <ele>1604.58</ele>
        <time>2013-08-02T05:43:31Z</time>
      </trkpt>
      <trkpt lat="46.33663" lon="6.00186">
        <ele>1604.1</ele>
        <time>2013-08-02T05:43:41Z</time>
      </trkpt>
      <trkpt lat="46.33653" lon="6.00186">
        <ele>1603.62</ele>
        <time>2013-08-02T05:43:51Z</time>
      </trkpt>
      <trkpt lat="46.33644" lon="6.00181">
        <ele>1604.1</ele>
        <time>2013-08-02T05:44:01Z</time>
      </trkpt>
      <trkpt lat="46.33634" lon="6.00171">
        <ele>1604.1</ele>
        <time>2013-08-02T05:44:11Z</time>
      </trkpt>
      <trkpt lat="46.33625" lon="6.00163">
        <ele>1604.58</ele>
        <time>2013-08-02T05:44:21Z</time>
      </trkpt>
      <trkpt lat="46.33615" lon="6.00157">
        <ele>1605.54</ele>
        <time>2013-08-02T05:44:31Z</time>
      </trkpt>
      <trkpt lat="46.33608" lon="6.00149">
        <ele>1606.02</ele>
        <time>2013-08-02T05:44:41Z</time>
      </trkpt>
      <trkpt lat="46.33601" lon="6.00139">
        <ele>1607.94</ele>
        <time>2013-08-02T05:44:51Z</time>
      </trkpt>
      <trkpt lat="46.33591" lon="6.00131">
        <ele>1606.98</ele>
        <time>2013-08-02T05:45:01Z</time>
      </trkpt>
      <trkpt lat="46.3358" lon="6.00123">
        <ele>1606.98</ele>
        <time>2013-08-02T05:45:11Z</time>
      </trkpt>
      <trkpt lat="46.33569" lon="6.00119">
        <ele>1607.46</ele>
        <time>2013-08-02T05:45:21Z</time>
      </trkpt>
      <trkpt lat="46.33558" lon="6.00116">
        <ele>1606.98</ele>
        <time>2013-08-02T05:45:31Z</time>
      </trkpt>
      <trkpt lat="46.33546" lon="6.00114">
        <ele>1606.5</ele>
        <time>2013-08-02T05:45:41Z</time>
      </trkpt>
      <trkpt lat="46.33539" lon="6.00115">
        <ele>1608.42</ele>
        <time>2013-08-02T05:45:51Z</time>
      </trkpt>
      <trkpt lat="46.33531" lon="6.00111">
        <ele>1610.35</ele>
        <time>2013-08-02T05:46:01Z</time>
      </trkpt>
      <trkpt lat="46.33522" lon="6.00107">
        <ele>1611.31</ele>
        <time>2013-08-02T05:46:11Z</time>
      </trkpt>
      <trkpt lat="46.33514" lon="6.00099">
        <ele>1611.79</ele>
        <time>2013-08-02T05:46:21Z</time>
      </trkpt>
      <trkpt lat="46.33504" lon="6.00094">
        <ele>1609.38</ele>
        <time>2013-08-02T05:46:31Z</time>
      </trkpt>
      <trkpt lat="46.33496" lon="6.0009">
        <ele>1612.27</ele>
        <time>2013-08-02T05:46:41Z</time>
      </trkpt>
      <trkpt lat="46.33486" lon="6.00082">
        <ele>1612.27</ele>
        <time>2013-08-02T05:46:51Z</time>
      </trkpt>
      <trkpt lat="46.33475" lon="6.00077">
        <ele>1609.86</ele>
        <time>2013-08-02T05:47:01Z</time>
      </trkpt>
      <trkpt lat="46.33465" lon="6.00075">
        <ele>1611.31</ele>
        <time>2013-08-02T05:47:11Z</time>
      </trkpt>
      <trkpt lat="46.33457" lon="6.00073">
        <ele>1605.06</ele>
        <time>2013-08-02T05:47:21Z</time>
      </trkpt>
      <trkpt lat="46.33449" lon="6.00069">
        <ele>1605.06</ele>
        <time>2013-08-02T05:47:31Z</time>
      </trkpt>
      <trkpt lat="46.33444" lon="6.00064">
        <ele>1604.1</ele>
        <time>2013-08-02T05:47:41Z</time>
      </trkpt>
      <trkpt lat="46.33434" lon="6.00063">
        <ele>1600.25</ele>
        <time>2013-08-02T05:47:51Z</time>
      </trkpt>
      <trkpt lat="46.33426" lon="6.00061">
        <ele>1598.81</ele>
        <time>2013-08-02T05:48:01Z</time>
      </trkpt>
      <trkpt lat="46.33413" lon="6.0006">
        <ele>1597.37</ele>
        <time>2013-08-02T05:48:11Z</time>
      </trkpt>
      <trkpt lat="46.33401" lon="6.00055">
        <ele>1595.93</ele>
        <time>2013-08-02T05:48:21Z</time>
      </trkpt>
      <trkpt lat="46.33391" lon="6.00054">
        <ele>1595.45</ele>
        <time>2013-08-02T05:48:31Z</time>
      </trkpt>
      <trkpt lat="46.33382" lon="6.00051">
        <ele>1595.45</ele>
        <time>2013-08-02T05:48:41Z</time>
      </trkpt>
      <trkpt lat="46.33375" lon="6.00044">
        <ele>1595.93</ele>
        <time>2013-08-02T05:48:51Z</time>
      </trkpt>
      <trkpt lat="46.33364" lon="6.0004">
        <ele>1595.93</ele>
        <time>2013-08-02T05:49:01Z</time>
      </trkpt>
      <trkpt lat="46.33352" lon="6.00035">
        <ele>1596.89</ele>
        <time>2013-08-02T05:49:11Z</time>
      </trkpt>
      <trkpt lat="46.33342" lon="6.00028">
        <ele>1597.37</ele>
        <time>2013-08-02T05:49:21Z</time>
      </trkpt>
      <trkpt lat="46.33332" lon="6.00021">
        <ele>1597.37</ele>
        <time>2013-08-02T05:49:31Z</time>
      </trkpt>
      <trkpt lat="46.33321" lon="6.00015">
        <ele>1598.33</ele>
        <time>2013-08-02T05:49:41Z</time>
      </trkpt>
      <trkpt lat="46.33313" lon="6.00006">
        <ele>1599.77</ele>
        <time>2013-08-02T05:49:51Z</time>
      </trkpt>
      <trkpt lat="46.33303" lon="6.00004">
        <ele>1600.25</ele>
        <time>2013-08-02T05:50:01Z</time>
      </trkpt>
      <trkpt lat="46.33296" lon="6">
        <ele>1599.77</ele>
        <time>2013-08-02T05:50:11Z</time>
      </trkpt>
      <trkpt lat="46.33288" lon="5.99995">
        <ele>1597.37</ele>
        <time>2013-08-02T05:50:21Z</time>
      </trkpt>
      <trkpt lat="46.33282" lon="5.99986">
        <ele>1594</ele>
        <time>2013-08-02T05:50:31Z</time>
      </trkpt>
      <trkpt lat="46.33273" lon="5.99984">
        <ele>1592.08</ele>
        <time>2013-08-02T05:50:41Z</time>
      </trkpt>
      <trkpt lat="46.33264" lon="5.99979">
        <ele>1590.16</ele>
        <time>2013-08-02T05:50:51Z</time>
      </trkpt>
      <trkpt lat="46.33254" lon="5.9998">
        <ele>1589.2</ele>
        <time>2013-08-02T05:51:01Z</time>
      </trkpt>
      <trkpt lat="46.33246" lon="5.99981">
        <ele>1585.35</ele>
        <time>2013-08-02T05:51:11Z</time>
      </trkpt>
      <trkpt lat="46.33244" lon="5.99986">
        <ele>1584.87</ele>
        <time>2013-08-02T05:51:21Z</time>
      </trkpt>
      <trkpt lat="46.33241" lon="5.99989">
        <ele>1581.51</ele>
        <time>2013-08-02T05:51:31Z</time>
      </trkpt>
      <trkpt lat="46.33238" lon="5.99987">
        <ele>1580.54</ele>
        <time>2013-08-02T05:51:41Z</time>
      </trkpt>
      <trkpt lat="46.33234" lon="5.9998">
        <ele>1577.18</ele>
        <time>2013-08-02T05:51:51Z</time>
      </trkpt>
      <trkpt lat="46.33227" lon="5.99981">
        <ele>1575.26</ele>
        <time>2013-08-02T05:52:01Z</time>
      </trkpt>
      <trkpt lat="46.33216" lon="5.99985">
        <ele>1570.93</ele>
        <time>2013-08-02T05:52:11Z</time>
      </trkpt>
      <trkpt lat="46.33207" lon="5.99986">
        <ele>1569.01</ele>
        <time>2013-08-02T05:52:21Z</time>
      </trkpt>
      <trkpt lat="46.33198" lon="5.99986">
        <ele>1565.16</ele>
        <time>2013-08-02T05:52:31Z</time>
      </trkpt>
      <trkpt lat="46.33191" lon="5.9999">
        <ele>1561.32</ele>
        <time>2013-08-02T05:52:41Z</time>
      </trkpt>
      <trkpt lat="46.33182" lon="5.99994">
        <ele>1559.4</ele>
        <time>2013-08-02T05:52:51Z</time>
      </trkpt>
      <trkpt lat="46.33172" lon="5.99996">
        <ele>1560.84</ele>
        <time>2013-08-02T05:53:01Z</time>
      </trkpt>
      <trkpt lat="46.33161" lon="5.99999">
        <ele>1562.28</ele>
        <time>2013-08-02T05:53:11Z</time>
      </trkpt>
      <trkpt lat="46.33149" lon="5.99997">
        <ele>1562.28</ele>
        <time>2013-08-02T05:53:21Z</time>
      </trkpt>
      <trkpt lat="46.33138" lon="5.99994">
        <ele>1559.88</ele>
        <time>2013-08-02T05:53:31Z</time>
      </trkpt>
      <trkpt lat="46.33125" lon="5.99992">
        <ele>1561.32</ele>
        <time>2013-08-02T05:53:41Z</time>
      </trkpt>
      <trkpt lat="46.33122" lon="5.99993">
        <ele>1562.28</ele>
        <time>2013-08-02T05:53:51Z</time>
      </trkpt>
      <trkpt lat="46.33122" lon="5.99995">
        <ele>1561.8</ele>
        <time>2013-08-02T05:54:01Z</time>
      </trkpt>
      <trkpt lat="46.33121" lon="5.99994">
        <ele>1562.28</ele>
        <time>2013-08-02T05:54:11Z</time>
      </trkpt>
      <trkpt lat="46.33114" lon="5.99994">
        <ele>1561.32</ele>
        <time>2013-08-02T05:54:21Z</time>
      </trkpt>
      <trkpt lat="46.33113" lon="5.99994">
        <ele>1560.36</ele>
        <time>2013-08-02T05:54:31Z</time>
      </trkpt>
      <trkpt lat="46.33112" lon="5.99995">
        <ele>1559.88</ele>
        <time>2013-08-02T05:54:41Z</time>
      </trkpt>
      <trkpt lat="46.3311" lon="5.99994">
        <ele>1560.36</ele>
        <time>2013-08-02T05:54:51Z</time>
      </trkpt>
      <trkpt lat="46.33106" lon="5.99994">
        <ele>1558.92</ele>
        <time>2013-08-02T05:55:01Z</time>
      </trkpt>
      <trkpt lat="46.331" lon="5.99996">
        <ele>1555.55</ele>
        <time>2013-08-02T05:55:11Z</time>
      </trkpt>
      <trkpt lat="46.33096" lon="5.99997">
        <ele>1552.67</ele>
        <time>2013-08-02T05:55:21Z</time>
      </trkpt>
      <trkpt lat="46.33084" lon="5.99997">
        <ele>1551.22</ele>
        <time>2013-08-02T05:55:31Z</time>
      </trkpt>
      <trkpt lat="46.33071" lon="6">
        <ele>1551.71</ele>
        <time>2013-08-02T05:55:41Z</time>
      </trkpt>
      <trkpt lat="46.3306" lon="6.00001">
        <ele>1552.67</ele>
        <time>2013-08-02T05:55:51Z</time>
      </trkpt>
      <trkpt lat="46.33049" lon="6.00005">
        <ele>1553.15</ele>
        <time>2013-08-02T05:56:01Z</time>
      </trkpt>
      <trkpt lat="46.33039" lon="6.0001">
        <ele>1555.07</ele>
        <time>2013-08-02T05:56:11Z</time>
      </trkpt>
      <trkpt lat="46.33028" lon="6.00011">
        <ele>1556.99</ele>
        <time>2013-08-02T05:56:21Z</time>
      </trkpt>
      <trkpt lat="46.33017" lon="6.00011">
        <ele>1556.99</ele>
        <time>2013-08-02T05:56:31Z</time>
      </trkpt>
      <trkpt lat="46.33008" lon="6.00011">
        <ele>1557.95</ele>
        <time>2013-08-02T05:56:41Z</time>
      </trkpt>
      <trkpt lat="46.33" lon="6.00011">
        <ele>1558.43</ele>
        <time>2013-08-02T05:56:51Z</time>
      </trkpt>
      <trkpt lat="46.32991" lon="6.00011">
        <ele>1558.92</ele>
        <time>2013-08-02T05:57:01Z</time>
      </trkpt>
      <trkpt lat="46.32983" lon="6.00013">
        <ele>1560.84</ele>
        <time>2013-08-02T05:57:11Z</time>
      </trkpt>
      <trkpt lat="46.32973" lon="6.00012">
        <ele>1562.28</ele>
        <time>2013-08-02T05:57:21Z</time>
      </trkpt>
      <trkpt lat="46.32964" lon="6.00011">
        <ele>1562.76</ele>
        <time>2013-08-02T05:57:31Z</time>
      </trkpt>
      <trkpt lat="46.32959" lon="6.00011">
        <ele>1565.64</ele>
        <time>2013-08-02T05:57:41Z</time>
      </trkpt>
      <trkpt lat="46.32953" lon="6.0001">
        <ele>1567.57</ele>
        <time>2013-08-02T05:57:51Z</time>
      </trkpt>
      <trkpt lat="46.32947" lon="6.0001">
        <ele>1570.45</ele>
        <time>2013-08-02T05:58:01Z</time>
      </trkpt>
      <trkpt lat="46.32948" lon="6.00006">
        <ele>1570.93</ele>
        <time>2013-08-02T05:58:11Z</time>
      </trkpt>
      <trkpt lat="46.32942" lon="6.00009">
        <ele>1570.45</ele>
        <time>2013-08-02T05:58:21Z</time>
      </trkpt>
      <trkpt lat="46.32934" lon="6.0001">
        <ele>1571.41</ele>
        <time>2013-08-02T05:58:31Z</time>
      </trkpt>
      <trkpt lat="46.32928" lon="6.00011">
        <ele>1573.33</ele>
        <time>2013-08-02T05:58:41Z</time>
      </trkpt>
      <trkpt lat="46.32922" lon="6.0001">
        <ele>1574.3</ele>
        <time>2013-08-02T05:58:51Z</time>
      </trkpt>
      <trkpt lat="46.32917" lon="6.0001">
        <ele>1576.7</ele>
        <time>2013-08-02T05:59:01Z</time>
      </trkpt>
      <trkpt lat="46.3291" lon="6.00009">
        <ele>1576.7</ele>
        <time>2013-08-02T05:59:11Z</time>
      </trkpt>
      <trkpt lat="46.32904" lon="6.00009">
        <ele>1578.62</ele>
        <time>2013-08-02T05:59:21Z</time>
      </trkpt>
      <trkpt lat="46.32903" lon="6.00011">
        <ele>1579.1</ele>
        <time>2013-08-02T05:59:31Z</time>
      </trkpt>
      <trkpt lat="46.32904" lon="6.00007">
        <ele>1580.06</ele>
        <time>2013-08-02T05:59:41Z</time>
      </trkpt>
      <trkpt lat="46.32903" lon="6.00007">
        <ele>1580.54</ele>
        <time>2013-08-02T05:59:51Z</time>
      </trkpt>
      <trkpt lat="46.32897" lon="6.00012">
        <ele>1582.47</ele>
        <time>2013-08-02T06:00:01Z</time>
      </trkpt>
      <trkpt lat="46.32894" lon="6.00016">
        <ele>1583.91</ele>
        <time>2013-08-02T06:00:11Z</time>
      </trkpt>
      <trkpt lat="46.32889" lon="6.0002">
        <ele>1586.31</ele>
        <time>2013-08-02T06:00:21Z</time>
      </trkpt>
      <trkpt lat="46.32886" lon="6.00022">
        <ele>1588.24</ele>
        <time>2013-08-02T06:00:31Z</time>
      </trkpt>
      <trkpt lat="46.32882" lon="6.00026">
        <ele>1589.2</ele>
        <time>2013-08-02T06:00:41Z</time>
      </trkpt>
      <trkpt lat="46.3288" lon="6.00031">
        <ele>1591.12</ele>
        <time>2013-08-02T06:00:51Z</time>
      </trkpt>
      <trkpt lat="46.3288" lon="6.00035">
        <ele>1592.08</ele>
        <time>2013-08-02T06:01:01Z</time>
      </trkpt>
      <trkpt lat="46.32874" lon="6.00037">
        <ele>1593.04</ele>
        <time>2013-08-02T06:01:11Z</time>
      </trkpt>
      <trkpt lat="46.32867" lon="6.00039">
        <ele>1595.45</ele>
        <time>2013-08-02T06:01:21Z</time>
      </trkpt>
      <trkpt lat="46.32861" lon="6.00043">
        <ele>1597.85</ele>
        <time>2013-08-02T06:01:31Z</time>
      </trkpt>
      <trkpt lat="46.32854" lon="6.0005">
        <ele>1599.77</ele>
        <time>2013-08-02T06:01:41Z</time>
      </trkpt>
      <trkpt lat="46.32849" lon="6.00056">
        <ele>1601.21</ele>
        <time>2013-08-02T06:01:51Z</time>
      </trkpt>
      <trkpt lat="46.32845" lon="6.00057">
        <ele>1604.1</ele>
        <time>2013-08-02T06:02:01Z</time>
      </trkpt>
      <trkpt lat="46.32847" lon="6.00056">
        <ele>1604.1</ele>
        <time>2013-08-02T06:02:11Z</time>
      </trkpt>
      <trkpt lat="46.32846" lon="6.00055">
        <ele>1602.66</ele>
        <time>2013-08-02T06:02:21Z</time>
      </trkpt>
      <trkpt lat="46.32846" lon="6.00054">
        <ele>1602.17</ele>
        <time>2013-08-02T06:02:31Z</time>
      </trkpt>
      <trkpt lat="46.32842" lon="6.00061">
        <ele>1603.14</ele>
        <time>2013-08-02T06:02:41Z</time>
      </trkpt>
      <trkpt lat="46.32832" lon="6.00066">
        <ele>1601.21</ele>
        <time>2013-08-02T06:02:51Z</time>
      </trkpt>
      <trkpt lat="46.32821" lon="6.0007">
        <ele>1601.21</ele>
        <time>2013-08-02T06:03:01Z</time>
      </trkpt>
      <trkpt lat="46.3281" lon="6.0007">
        <ele>1600.25</ele>
        <time>2013-08-02T06:03:11Z</time>
      </trkpt>
      <trkpt lat="46.32797" lon="6.00072">
        <ele>1597.85</ele>
        <time>2013-08-02T06:03:21Z</time>
      </trkpt>
      <trkpt lat="46.32784" lon="6.00076">
        <ele>1596.89</ele>
        <time>2013-08-02T06:03:31Z</time>
      </trkpt>
      <trkpt lat="46.32776" lon="6.00083">
        <ele>1599.77</ele>
        <time>2013-08-02T06:03:41Z</time>
      </trkpt>
      <trkpt lat="46.32766" lon="6.00087">
        <ele>1600.73</ele>
        <time>2013-08-02T06:03:51Z</time>
      </trkpt>
      <trkpt lat="46.32757" lon="6.00092">
        <ele>1602.17</ele>
        <time>2013-08-02T06:04:01Z</time>
      </trkpt>
      <trkpt lat="46.32748" lon="6.00098">
        <ele>1602.66</ele>
        <time>2013-08-02T06:04:11Z</time>
      </trkpt>
      <trkpt lat="46.3274" lon="6.00107">
        <ele>1603.62</ele>
        <time>2013-08-02T06:04:21Z</time>
      </trkpt>
      <trkpt lat="46.32733" lon="6.00113">
        <ele>1605.54</ele>
        <time>2013-08-02T06:04:31Z</time>
      </trkpt>
      <trkpt lat="46.32726" lon="6.00119">
        <ele>1606.98</ele>
        <time>2013-08-02T06:04:41Z</time>
      </trkpt>
      <trkpt lat="46.32723" lon="6.00124">
        <ele>1609.38</ele>
        <time>2013-08-02T06:04:51Z</time>
      </trkpt>
      <trkpt lat="46.32726" lon="6.00122">
        <ele>1610.83</ele>
        <time>2013-08-02T06:05:01Z</time>
      </trkpt>
      <trkpt lat="46.32722" lon="6.00121">
        <ele>1607.46</ele>
        <time>2013-08-02T06:05:11Z</time>
      </trkpt>
      <trkpt lat="46.32722" lon="6.0012">
        <ele>1607.94</ele>
        <time>2013-08-02T06:05:21Z</time>
      </trkpt>
      <trkpt lat="46.32714" lon="6.00134">
        <ele>1607.46</ele>
        <time>2013-08-02T06:05:31Z</time>
      </trkpt>
      <trkpt lat="46.32707" lon="6.00139">
        <ele>1604.1</ele>
        <time>2013-08-02T06:05:41Z</time>
      </trkpt>
      <trkpt lat="46.32696" lon="6.0014">
        <ele>1602.17</ele>
        <time>2013-08-02T06:05:51Z</time>
      </trkpt>
      <trkpt lat="46.32687" lon="6.00137">
        <ele>1597.85</ele>
        <time>2013-08-02T06:06:01Z</time>
      </trkpt>
      <trkpt lat="46.32675" lon="6.00135">
        <ele>1595.45</ele>
        <time>2013-08-02T06:06:11Z</time>
      </trkpt>
      <trkpt lat="46.32664" lon="6.00135">
        <ele>1593.52</ele>
        <time>2013-08-02T06:06:21Z</time>
      </trkpt>
      <trkpt lat="46.32654" lon="6.00136">
        <ele>1592.08</ele>
        <time>2013-08-02T06:06:31Z</time>
      </trkpt>
      <trkpt lat="46.32646" lon="6.00144">
        <ele>1589.2</ele>
        <time>2013-08-02T06:06:41Z</time>
      </trkpt>
      <trkpt lat="46.32637" lon="6.00153">
        <ele>1587.27</ele>
        <time>2013-08-02T06:06:51Z</time>
      </trkpt>
      <trkpt lat="46.32637" lon="6.00151">
        <ele>1588.24</ele>
        <time>2013-08-02T06:07:01Z</time>
      </trkpt>
      <trkpt lat="46.32637" lon="6.00151">
        <ele>1587.27</ele>
        <time>2013-08-02T06:07:11Z</time>
      </trkpt>
      <trkpt lat="46.32638" lon="6.00152">
        <ele>1587.75</ele>
        <time>2013-08-02T06:07:21Z</time>
      </trkpt>
      <trkpt lat="46.32637" lon="6.00151">
        <ele>1587.75</ele>
        <time>2013-08-02T06:07:31Z</time>
      </trkpt>
      <trkpt lat="46.32637" lon="6.00152">
        <ele>1587.75</ele>
        <time>2013-08-02T06:07:41Z</time>
      </trkpt>
      <trkpt lat="46.32637" lon="6.00152">
        <ele>1587.75</ele>
        <time>2013-08-02T06:07:51Z</time>
      </trkpt>
      <trkpt lat="46.32637" lon="6.00151">
        <ele>1586.79</ele>
        <time>2013-08-02T06:08:01Z</time>
      </trkpt>
      <trkpt lat="46.32637" lon="6.0015">
        <ele>1586.31</ele>
        <time>2013-08-02T06:08:11Z</time>
      </trkpt>
      <trkpt lat="46.32637" lon="6.0015">
        <ele>1586.79</ele>
        <time>2013-08-02T06:08:21Z</time>
      </trkpt>
      <trkpt lat="46.32636" lon="6.0015">
        <ele>1587.27</ele>
        <time>2013-08-02T06:08:31Z</time>
      </trkpt>
      <trkpt lat="46.32637" lon="6.00152">
        <ele>1587.75</ele>
        <time>2013-08-02T06:08:41Z</time>
      </trkpt>
      <trkpt lat="46.32632" lon="6.00155">
        <ele>1587.27</ele>
        <time>2013-08-02T06:08:51Z</time>
      </trkpt>
      <trkpt lat="46.32621" lon="6.00155">
        <ele>1586.31</ele>
        <time>2013-08-02T06:09:01Z</time>
      </trkpt>
      <trkpt lat="46.32609" lon="6.00154">
        <ele>1585.83</ele>
        <time>2013-08-02T06:09:11Z</time>
      </trkpt>
      <trkpt lat="46.32597" lon="6.00153">
        <ele>1585.35</ele>
        <time>2013-08-02T06:09:21Z</time>
      </trkpt>
      <trkpt lat="46.32586" lon="6.00148">
        <ele>1585.83</ele>
        <time>2013-08-02T06:09:31Z</time>
      </trkpt>
      <trkpt lat="46.32581" lon="6.00139">
        <ele>1587.27</ele>
        <time>2013-08-02T06:09:41Z</time>
      </trkpt>
      <trkpt lat="46.32573" lon="6.00138">
        <ele>1589.68</ele>
        <time>2013-08-02T06:09:51Z</time>
      </trkpt>
      <trkpt lat="46.32567" lon="6.00133">
        <ele>1590.64</ele>
        <time>2013-08-02T06:10:01Z</time>
      </trkpt>
      <trkpt lat="46.3256" lon="6.00128">
        <ele>1592.08</ele>
        <time>2013-08-02T06:10:11Z</time>
      </trkpt>
      <trkpt lat="46.32554" lon="6.00126">
        <ele>1594</ele>
        <time>2013-08-02T06:10:21Z</time>
      </trkpt>
      <trkpt lat="46.32548" lon="6.00126">
        <ele>1594.96</ele>
        <time>2013-08-02T06:10:31Z</time>
      </trkpt>
      <trkpt lat="46.32543" lon="6.00125">
        <ele>1595.93</ele>
        <time>2013-08-02T06:10:41Z</time>
      </trkpt>
      <trkpt lat="46.32538" lon="6.00125">
        <ele>1598.81</ele>
        <time>2013-08-02T06:10:51Z</time>
      </trkpt>
      <trkpt lat="46.32533" lon="6.00121">
        <ele>1599.77</ele>
        <time>2013-08-02T06:11:01Z</time>
      </trkpt>
      <trkpt lat="46.32529" lon="6.00121">
        <ele>1601.69</ele>
        <time>2013-08-02T06:11:11Z</time>
      </trkpt>
      <trkpt lat="46.32523" lon="6.00123">
        <ele>1603.62</ele>
        <time>2013-08-02T06:11:21Z</time>
      </trkpt>
      <trkpt lat="46.32514" lon="6.0012">
        <ele>1604.1</ele>
        <time>2013-08-02T06:11:31Z</time>
      </trkpt>
      <trkpt lat="46.32509" lon="6.00115">
        <ele>1604.58</ele>
        <time>2013-08-02T06:11:41Z</time>
      </trkpt>
      <trkpt lat="46.32503" lon="6.0011">
        <ele>1604.58</ele>
        <time>2013-08-02T06:11:51Z</time>
      </trkpt>
      <trkpt lat="46.32497" lon="6.00102">
        <ele>1605.54</ele>
        <time>2013-08-02T06:12:01Z</time>
      </trkpt>
      <trkpt lat="46.32489" lon="6.00096">
        <ele>1606.02</ele>
        <time>2013-08-02T06:12:11Z</time>
      </trkpt>
      <trkpt lat="46.32484" lon="6.00091">
        <ele>1608.9</ele>
        <time>2013-08-02T06:12:21Z</time>
      </trkpt>
      <trkpt lat="46.32478" lon="6.00085">
        <ele>1610.35</ele>
        <time>2013-08-02T06:12:31Z</time>
      </trkpt>
      <trkpt lat="46.3247" lon="6.00077">
        <ele>1610.35</ele>
        <time>2013-08-02T06:12:41Z</time>
      </trkpt>
      <trkpt lat="46.32468" lon="6.00067">
        <ele>1611.31</ele>
        <time>2013-08-02T06:12:51Z</time>
      </trkpt>
      <trkpt lat="46.32467" lon="6.00055">
        <ele>1612.75</ele>
        <time>2013-08-02T06:13:01Z</time>
      </trkpt>
      <trkpt lat="46.32466" lon="6.00045">
        <ele>1613.23</ele>
        <time>2013-08-02T06:13:11Z</time>
      </trkpt>
      <trkpt lat="46.32465" lon="6.00033">
        <ele>1615.15</ele>
        <time>2013-08-02T06:13:21Z</time>
      </trkpt>
      <trkpt lat="46.32464" lon="6.0002">
        <ele>1615.15</ele>
        <time>2013-08-02T06:13:31Z</time>
      </trkpt>
      <trkpt lat="46.32462" lon="6.00009">
        <ele>1618.04</ele>
        <time>2013-08-02T06:13:41Z</time>
      </trkpt>
      <trkpt lat="46.32463" lon="6.00009">
        <ele>1619</ele>
        <time>2013-08-02T06:13:51Z</time>
      </trkpt>
      <trkpt lat="46.32464" lon="6.0001">
        <ele>1618.52</ele>
        <time>2013-08-02T06:14:01Z</time>
      </trkpt>
      <trkpt lat="46.32463" lon="6.0001">
        <ele>1617.56</ele>
        <time>2013-08-02T06:14:11Z</time>
      </trkpt>
      <trkpt lat="46.32464" lon="6.0001">
        <ele>1617.56</ele>
        <time>2013-08-02T06:14:21Z</time>
      </trkpt>
      <trkpt lat="46.32461" lon="5.99998">
        <ele>1617.07</ele>
        <time>2013-08-02T06:14:31Z</time>
      </trkpt>
      <trkpt lat="46.32457" lon="5.99983">
        <ele>1615.63</ele>
        <time>2013-08-02T06:14:41Z</time>
      </trkpt>
      <trkpt lat="46.32455" lon="5.99968">
        <ele>1615.15</ele>
        <time>2013-08-02T06:14:51Z</time>
      </trkpt>
      <trkpt lat="46.32451" lon="5.99952">
        <ele>1614.67</ele>
        <time>2013-08-02T06:15:01Z</time>
      </trkpt>
      <trkpt lat="46.32449" lon="5.99938">
        <ele>1614.19</ele>
        <time>2013-08-02T06:15:11Z</time>
      </trkpt>
      <trkpt lat="46.32448" lon="5.99924">
        <ele>1615.63</ele>
        <time>2013-08-02T06:15:21Z</time>
      </trkpt>
      <trkpt lat="46.32446" lon="5.9991">
        <ele>1615.15</ele>
        <time>2013-08-02T06:15:31Z</time>
      </trkpt>
      <trkpt lat="46.32444" lon="5.99893">
        <ele>1616.59</ele>
        <time>2013-08-02T06:15:41Z</time>
      </trkpt>
      <trkpt lat="46.32441" lon="5.99877">
        <ele>1616.11</ele>
        <time>2013-08-02T06:15:51Z</time>
      </trkpt>
      <trkpt lat="46.32439" lon="5.99859">
        <ele>1616.59</ele>
        <time>2013-08-02T06:16:01Z</time>
      </trkpt>
      <trkpt lat="46.32438" lon="5.99844">
        <ele>1617.07</ele>
        <time>2013-08-02T06:16:11Z</time>
      </trkpt>
      <trkpt lat="46.32432" lon="5.99833">
        <ele>1617.07</ele>
        <time>2013-08-02T06:16:21Z</time>
      </trkpt>
      <trkpt lat="46.32432" lon="5.99829">
        <ele>1617.07</ele>
        <time>2013-08-02T06:16:31Z</time>
      </trkpt>
      <trkpt lat="46.32428" lon="5.99826">
        <ele>1616.11</ele>
        <time>2013-08-02T06:16:41Z</time>
      </trkpt>
      <trkpt lat="46.32421" lon="5.99815">
        <ele>1615.63</ele>
        <time>2013-08-02T06:16:51Z</time>
      </trkpt>
      <trkpt lat="46.32415" lon="5.99805">
        <ele>1615.63</ele>
        <time>2013-08-02T06:17:01Z</time>
      </trkpt>
      <trkpt lat="46.32408" lon="5.99796">
        <ele>1617.56</ele>
        <time>2013-08-02T06:17:11Z</time>
      </trkpt>
      <trkpt lat="46.324" lon="5.99788">
        <ele>1618.52</ele>
        <time>2013-08-02T06:17:21Z</time>
      </trkpt>
      <trkpt lat="46.32393" lon="5.99777">
        <ele>1618.52</ele>
        <time>2013-08-02T06:17:31Z</time>
      </trkpt>
      <trkpt lat="46.32394" lon="5.99774">
        <ele>1618.04</ele>
        <time>2013-08-02T06:17:41Z</time>
      </trkpt>
      <trkpt lat="46.32395" lon="5.99775">
        <ele>1618.52</ele>
        <time>2013-08-02T06:17:51Z</time>
      </trkpt>
      <trkpt lat="46.32395" lon="5.99775">
        <ele>1618.52</ele>
        <time>2013-08-02T06:18:01Z</time>
      </trkpt>
      <trkpt lat="46.32395" lon="5.99776">
        <ele>1618.04</ele>
        <time>2013-08-02T06:18:11Z</time>
      </trkpt>
      <trkpt lat="46.32392" lon="5.99767">
        <ele>1618.52</ele>
        <time>2013-08-02T06:18:21Z</time>
      </trkpt>
      <trkpt lat="46.32391" lon="5.99758">
        <ele>1620.92</ele>
        <time>2013-08-02T06:18:31Z</time>
      </trkpt>
      <trkpt lat="46.3239" lon="5.9975">
        <ele>1621.4</ele>
        <time>2013-08-02T06:18:41Z</time>
      </trkpt>
      <trkpt lat="46.32386" lon="5.99746">
        <ele>1623.8</ele>
        <time>2013-08-02T06:18:51Z</time>
      </trkpt>
      <trkpt lat="46.32383" lon="5.99737">
        <ele>1625.73</ele>
        <time>2013-08-02T06:19:01Z</time>
      </trkpt>
      <trkpt lat="46.3238" lon="5.99732">
        <ele>1626.69</ele>
        <time>2013-08-02T06:19:11Z</time>
      </trkpt>
      <trkpt lat="46.32378" lon="5.99725">
        <ele>1628.61</ele>
        <time>2013-08-02T06:19:21Z</time>
      </trkpt>
      <trkpt lat="46.32377" lon="5.99716">
        <ele>1630.53</ele>
        <time>2013-08-02T06:19:31Z</time>
      </trkpt>
      <trkpt lat="46.32374" lon="5.99712">
        <ele>1631.01</ele>
        <time>2013-08-02T06:19:41Z</time>
      </trkpt>
      <trkpt lat="46.32371" lon="5.9971">
        <ele>1631.98</ele>
        <time>2013-08-02T06:19:51Z</time>
      </trkpt>
      <trkpt lat="46.32367" lon="5.99707">
        <ele>1634.86</ele>
        <time>2013-08-02T06:20:01Z</time>
      </trkpt>
      <trkpt lat="46.32364" lon="5.99705">
        <ele>1636.3</ele>
        <time>2013-08-02T06:20:11Z</time>
      </trkpt>
      <trkpt lat="46.3236" lon="5.99702">
        <ele>1637.74</ele>
        <time>2013-08-02T06:20:21Z</time>
      </trkpt>
      <trkpt lat="46.32356" lon="5.99701">
        <ele>1639.19</ele>
        <time>2013-08-02T06:20:31Z</time>
      </trkpt>
      <trkpt lat="46.32354" lon="5.99701">
        <ele>1640.63</ele>
        <time>2013-08-02T06:20:41Z</time>
      </trkpt>
      <trkpt lat="46.3235" lon="5.99703">
        <ele>1642.07</ele>
        <time>2013-08-02T06:20:51Z</time>
      </trkpt>
      <trkpt lat="46.32344" lon="5.99705">
        <ele>1643.51</ele>
        <time>2013-08-02T06:21:01Z</time>
      </trkpt>
      <trkpt lat="46.32342" lon="5.99699">
        <ele>1644.95</ele>
        <time>2013-08-02T06:21:11Z</time>
      </trkpt>
      <trkpt lat="46.32343" lon="5.99697">
        <ele>1645.43</ele>
        <time>2013-08-02T06:21:21Z</time>
      </trkpt>
      <trkpt lat="46.32342" lon="5.99697">
        <ele>1644.47</ele>
        <time>2013-08-02T06:21:31Z</time>
      </trkpt>
      <trkpt lat="46.32342" lon="5.99697">
        <ele>1644.95</ele>
        <time>2013-08-02T06:21:41Z</time>
      </trkpt>
      <trkpt lat="46.32339" lon="5.99697">
        <ele>1646.4</ele>
        <time>2013-08-02T06:21:51Z</time>
      </trkpt>
      <trkpt lat="46.32336" lon="5.99692">
        <ele>1647.36</ele>
        <time>2013-08-02T06:22:01Z</time>
      </trkpt>
      <trkpt lat="46.32331" lon="5.99685">
        <ele>1649.76</ele>
        <time>2013-08-02T06:22:11Z</time>
      </trkpt>
      <trkpt lat="46.32328" lon="5.99679">
        <ele>1651.2</ele>
        <time>2013-08-02T06:22:21Z</time>
      </trkpt>
      <trkpt lat="46.32325" lon="5.99676">
        <ele>1653.12</ele>
        <time>2013-08-02T06:22:31Z</time>
      </trkpt>
      <trkpt lat="46.32325" lon="5.99672">
        <ele>1656.01</ele>
        <time>2013-08-02T06:22:41Z</time>
      </trkpt>
      <trkpt lat="46.32325" lon="5.99672">
        <ele>1656.01</ele>
        <time>2013-08-02T06:22:51Z</time>
      </trkpt>
      <trkpt lat="46.3232" lon="5.9967">
        <ele>1654.57</ele>
        <time>2013-08-02T06:23:01Z</time>
      </trkpt>
      <trkpt lat="46.32316" lon="5.99665">
        <ele>1655.05</ele>
        <time>2013-08-02T06:23:11Z</time>
      </trkpt>
      <trkpt lat="46.32312" lon="5.99657">
        <ele>1657.93</ele>
        <time>2013-08-02T06:23:21Z</time>
      </trkpt>
      <trkpt lat="46.32309" lon="5.99651">
        <ele>1660.81</ele>
        <time>2013-08-02T06:23:31Z</time>
      </trkpt>
      <trkpt lat="46.32306" lon="5.99644">
        <ele>1661.78</ele>
        <time>2013-08-02T06:23:41Z</time>
      </trkpt>
      <trkpt lat="46.32305" lon="5.99645">
        <ele>1662.74</ele>
        <time>2013-08-02T06:23:51Z</time>
      </trkpt>
      <trkpt lat="46.32308" lon="5.99642">
        <ele>1666.58</ele>
        <time>2013-08-02T06:24:01Z</time>
      </trkpt>
      <trkpt lat="46.32308" lon="5.9964">
        <ele>1667.54</ele>
        <time>2013-08-02T06:24:11Z</time>
      </trkpt>
      <trkpt lat="46.32306" lon="5.99639">
        <ele>1666.1</ele>
        <time>2013-08-02T06:24:21Z</time>
      </trkpt>
      <trkpt lat="46.32307" lon="5.9964">
        <ele>1667.54</ele>
        <time>2013-08-02T06:24:31Z</time>
      </trkpt>
      <trkpt lat="46.32308" lon="5.99641">
        <ele>1665.14</ele>
        <time>2013-08-02T06:24:41Z</time>
      </trkpt>
      <trkpt lat="46.32306" lon="5.99642">
        <ele>1668.99</ele>
        <time>2013-08-02T06:24:51Z</time>
      </trkpt>
      <trkpt lat="46.32301" lon="5.99635">
        <ele>1664.18</ele>
        <time>2013-08-02T06:25:01Z</time>
      </trkpt>
      <trkpt lat="46.32297" lon="5.99629">
        <ele>1663.7</ele>
        <time>2013-08-02T06:25:11Z</time>
      </trkpt>
      <trkpt lat="46.32292" lon="5.99622">
        <ele>1665.14</ele>
        <time>2013-08-02T06:25:21Z</time>
      </trkpt>
      <trkpt lat="46.32287" lon="5.99615">
        <ele>1666.58</ele>
        <time>2013-08-02T06:25:31Z</time>
      </trkpt>
      <trkpt lat="46.32284" lon="5.99608">
        <ele>1668.99</ele>
        <time>2013-08-02T06:25:41Z</time>
      </trkpt>
      <trkpt lat="46.32281" lon="5.99603">
        <ele>1670.91</ele>
        <time>2013-08-02T06:25:51Z</time>
      </trkpt>
      <trkpt lat="46.32276" lon="5.99596">
        <ele>1671.87</ele>
        <time>2013-08-02T06:26:01Z</time>
      </trkpt>
      <trkpt lat="46.32274" lon="5.9959">
        <ele>1674.27</ele>
        <time>2013-08-02T06:26:11Z</time>
      </trkpt>
      <trkpt lat="46.32271" lon="5.99584">
        <ele>1676.2</ele>
        <time>2013-08-02T06:26:21Z</time>
      </trkpt>
      <trkpt lat="46.32268" lon="5.99577">
        <ele>1678.12</ele>
        <time>2013-08-02T06:26:31Z</time>
      </trkpt>
      <trkpt lat="46.32265" lon="5.99569">
        <ele>1680.04</ele>
        <time>2013-08-02T06:26:41Z</time>
      </trkpt>
      <trkpt lat="46.32261" lon="5.99562">
        <ele>1682.44</ele>
        <time>2013-08-02T06:26:51Z</time>
      </trkpt>
      <trkpt lat="46.32257" lon="5.99553">
        <ele>1684.85</ele>
        <time>2013-08-02T06:27:01Z</time>
      </trkpt>
      <trkpt lat="46.32252" lon="5.99545">
        <ele>1685.33</ele>
        <time>2013-08-02T06:27:11Z</time>
      </trkpt>
      <trkpt lat="46.32246" lon="5.99535">
        <ele>1688.21</ele>
        <time>2013-08-02T06:27:21Z</time>
      </trkpt>
      <trkpt lat="46.32239" lon="5.99529">
        <ele>1689.17</ele>
        <time>2013-08-02T06:27:31Z</time>
      </trkpt>
      <trkpt lat="46.32232" lon="5.99531">
        <ele>1691.58</ele>
        <time>2013-08-02T06:27:41Z</time>
      </trkpt>
      <trkpt lat="46.32232" lon="5.9953">
        <ele>1696.38</ele>
        <time>2013-08-02T06:27:51Z</time>
      </trkpt>
      <trkpt lat="46.32238" lon="5.99524">
        <ele>1691.1</ele>
        <time>2013-08-02T06:28:01Z</time>
      </trkpt>
      <trkpt lat="46.32238" lon="5.99524">
        <ele>1690.14</ele>
        <time>2013-08-02T06:28:11Z</time>
      </trkpt>
      <trkpt lat="46.32238" lon="5.99524">
        <ele>1689.17</ele>
        <time>2013-08-02T06:28:21Z</time>
      </trkpt>
      <trkpt lat="46.32238" lon="5.99525">
        <ele>1689.17</ele>
        <time>2013-08-02T06:28:31Z</time>
      </trkpt>
      <trkpt lat="46.32238" lon="5.99525">
        <ele>1689.17</ele>
        <time>2013-08-02T06:28:41Z</time>
      </trkpt>
      <trkpt lat="46.32237" lon="5.99524">
        <ele>1688.69</ele>
        <time>2013-08-02T06:28:51Z</time>
      </trkpt>
      <trkpt lat="46.32238" lon="5.99525">
        <ele>1688.69</ele>
        <time>2013-08-02T06:29:01Z</time>
      </trkpt>
      <trkpt lat="46.32238" lon="5.99525">
        <ele>1689.17</ele>
        <time>2013-08-02T06:29:11Z</time>
      </trkpt>
      <trkpt lat="46.32238" lon="5.99524">
        <ele>1689.17</ele>
        <time>2013-08-02T06:29:21Z</time>
      </trkpt>
      <trkpt lat="46.32238" lon="5.99526">
        <ele>1689.65</ele>
        <time>2013-08-02T06:29:31Z</time>
      </trkpt>
      <trkpt lat="46.32237" lon="5.99523">
        <ele>1689.65</ele>
        <time>2013-08-02T06:29:41Z</time>
      </trkpt>
      <trkpt lat="46.32237" lon="5.99523">
        <ele>1689.17</ele>
        <time>2013-08-02T06:29:51Z</time>
      </trkpt>
      <trkpt lat="46.32237" lon="5.99524">
        <ele>1688.69</ele>
        <time>2013-08-02T06:30:01Z</time>
      </trkpt>
      <trkpt lat="46.32238" lon="5.99525">
        <ele>1689.17</ele>
        <time>2013-08-02T06:30:11Z</time>
      </trkpt>
      <trkpt lat="46.32238" lon="5.99525">
        <ele>1689.17</ele>
        <time>2013-08-02T06:30:21Z</time>
      </trkpt>
      <trkpt lat="46.32237" lon="5.99525">
        <ele>1689.65</ele>
        <time>2013-08-02T06:30:31Z</time>
      </trkpt>
      <trkpt lat="46.32237" lon="5.99524">
        <ele>1688.69</ele>
        <time>2013-08-02T06:30:41Z</time>
      </trkpt>
      <trkpt lat="46.32237" lon="5.99524">
        <ele>1688.69</ele>
        <time>2013-08-02T06:30:51Z</time>
      </trkpt>
      <trkpt lat="46.32237" lon="5.99524">
        <ele>1689.17</ele>
        <time>2013-08-02T06:31:01Z</time>
      </trkpt>
      <trkpt lat="46.32237" lon="5.99524">
        <ele>1689.65</ele>
        <time>2013-08-02T06:31:11Z</time>
      </trkpt>
      <trkpt lat="46.32237" lon="5.99524">
        <ele>1689.17</ele>
        <time>2013-08-02T06:31:21Z</time>
      </trkpt>
      <trkpt lat="46.32236" lon="5.99525">
        <ele>1688.69</ele>
        <time>2013-08-02T06:31:31Z</time>
      </trkpt>
      <trkpt lat="46.32237" lon="5.99525">
        <ele>1688.21</ele>
        <time>2013-08-02T06:31:41Z</time>
      </trkpt>
      <trkpt lat="46.32237" lon="5.99523">
        <ele>1688.21</ele>
        <time>2013-08-02T06:31:51Z</time>
      </trkpt>
      <trkpt lat="46.32238" lon="5.99527">
        <ele>1690.14</ele>
        <time>2013-08-02T06:32:01Z</time>
      </trkpt>
      <trkpt lat="46.32237" lon="5.99528">
        <ele>1689.65</ele>
        <time>2013-08-02T06:32:11Z</time>
      </trkpt>
      <trkpt lat="46.32235" lon="5.99524">
        <ele>1688.69</ele>
        <time>2013-08-02T06:32:21Z</time>
      </trkpt>
      <trkpt lat="46.32227" lon="5.99515">
        <ele>1686.77</ele>
        <time>2013-08-02T06:32:31Z</time>
      </trkpt>
      <trkpt lat="46.32217" lon="5.99505">
        <ele>1686.77</ele>
        <time>2013-08-02T06:32:41Z</time>
      </trkpt>
      <trkpt lat="46.32206" lon="5.99497">
        <ele>1685.81</ele>
        <time>2013-08-02T06:32:51Z</time>
      </trkpt>
      <trkpt lat="46.32201" lon="5.9949">
        <ele>1689.65</ele>
        <time>2013-08-02T06:33:01Z</time>
      </trkpt>
      <trkpt lat="46.32196" lon="5.99483">
        <ele>1684.85</ele>
        <time>2013-08-02T06:33:11Z</time>
      </trkpt>
      <trkpt lat="46.32187" lon="5.99472">
        <ele>1677.64</ele>
        <time>2013-08-02T06:33:21Z</time>
      </trkpt>
      <trkpt lat="46.32176" lon="5.9946">
        <ele>1674.75</ele>
        <time>2013-08-02T06:33:31Z</time>
      </trkpt>
      <trkpt lat="46.32167" lon="5.99446">
        <ele>1673.79</ele>
        <time>2013-08-02T06:33:41Z</time>
      </trkpt>
      <trkpt lat="46.32158" lon="5.99432">
        <ele>1669.47</ele>
        <time>2013-08-02T06:33:51Z</time>
      </trkpt>
      <trkpt lat="46.32148" lon="5.99421">
        <ele>1668.51</ele>
        <time>2013-08-02T06:34:01Z</time>
      </trkpt>
      <trkpt lat="46.32139" lon="5.99408">
        <ele>1666.1</ele>
        <time>2013-08-02T06:34:11Z</time>
      </trkpt>
      <trkpt lat="46.32129" lon="5.99396">
        <ele>1664.18</ele>
        <time>2013-08-02T06:34:21Z</time>
      </trkpt>
      <trkpt lat="46.32123" lon="5.99388">
        <ele>1664.18</ele>
        <time>2013-08-02T06:34:31Z</time>
      </trkpt>
      <trkpt lat="46.32122" lon="5.99387">
        <ele>1666.1</ele>
        <time>2013-08-02T06:34:41Z</time>
      </trkpt>
      <trkpt lat="46.32122" lon="5.99387">
        <ele>1663.7</ele>
        <time>2013-08-02T06:34:51Z</time>
      </trkpt>
      <trkpt lat="46.32117" lon="5.99381">
        <ele>1660.33</ele>
        <time>2013-08-02T06:35:01Z</time>
      </trkpt>
      <trkpt lat="46.3211" lon="5.99374">
        <ele>1659.37</ele>
        <time>2013-08-02T06:35:11Z</time>
      </trkpt>
      <trkpt lat="46.32102" lon="5.99366">
        <ele>1654.57</ele>
        <time>2013-08-02T06:35:21Z</time>
      </trkpt>
      <trkpt lat="46.32094" lon="5.99362">
        <ele>1654.57</ele>
        <time>2013-08-02T06:35:31Z</time>
      </trkpt>
      <trkpt lat="46.32085" lon="5.99356">
        <ele>1649.76</ele>
        <time>2013-08-02T06:35:41Z</time>
      </trkpt>
      <trkpt lat="46.32077" lon="5.99351">
        <ele>1645.43</ele>
        <time>2013-08-02T06:35:51Z</time>
      </trkpt>
      <trkpt lat="46.32068" lon="5.99344">
        <ele>1642.55</ele>
        <time>2013-08-02T06:36:01Z</time>
      </trkpt>
      <trkpt lat="46.32062" lon="5.99327">
        <ele>1640.63</ele>
        <time>2013-08-02T06:36:11Z</time>
      </trkpt>
      <trkpt lat="46.32058" lon="5.9931">
        <ele>1638.22</ele>
        <time>2013-08-02T06:36:21Z</time>
      </trkpt>
      <trkpt lat="46.32051" lon="5.99296">
        <ele>1636.78</ele>
        <time>2013-08-02T06:36:31Z</time>
      </trkpt>
      <trkpt lat="46.32043" lon="5.99285">
        <ele>1634.86</ele>
        <time>2013-08-02T06:36:41Z</time>
      </trkpt>
      <trkpt lat="46.32033" lon="5.99274">
        <ele>1634.38</ele>
        <time>2013-08-02T06:36:51Z</time>
      </trkpt>
      <trkpt lat="46.32024" lon="5.99263">
        <ele>1631.98</ele>
        <time>2013-08-02T06:37:01Z</time>
      </trkpt>
      <trkpt lat="46.32014" lon="5.99256">
        <ele>1630.53</ele>
        <time>2013-08-02T06:37:11Z</time>
      </trkpt>
      <trkpt lat="46.32004" lon="5.99244">
        <ele>1630.05</ele>
        <time>2013-08-02T06:37:21Z</time>
      </trkpt>
      <trkpt lat="46.31995" lon="5.99236">
        <ele>1628.13</ele>
        <time>2013-08-02T06:37:31Z</time>
      </trkpt>
      <trkpt lat="46.31984" lon="5.9923">
        <ele>1626.69</ele>
        <time>2013-08-02T06:37:41Z</time>
      </trkpt>
      <trkpt lat="46.31975" lon="5.99218">
        <ele>1625.73</ele>
        <time>2013-08-02T06:37:51Z</time>
      </trkpt>
      <trkpt lat="46.31967" lon="5.9921">
        <ele>1624.77</ele>
        <time>2013-08-02T06:38:01Z</time>
      </trkpt>
      <trkpt lat="46.31959" lon="5.992">
        <ele>1627.65</ele>
        <time>2013-08-02T06:38:11Z</time>
      </trkpt>
      <trkpt lat="46.31949" lon="5.99191">
        <ele>1627.17</ele>
        <time>2013-08-02T06:38:21Z</time>
      </trkpt>
      <trkpt lat="46.31941" lon="5.9918">
        <ele>1629.09</ele>
        <time>2013-08-02T06:38:31Z</time>
      </trkpt>
      <trkpt lat="46.31933" lon="5.99171">
        <ele>1629.57</ele>
        <time>2013-08-02T06:38:41Z</time>
      </trkpt>
      <trkpt lat="46.31927" lon="5.99162">
        <ele>1631.01</ele>
        <time>2013-08-02T06:38:51Z</time>
      </trkpt>
      <trkpt lat="46.31923" lon="5.99153">
        <ele>1633.9</ele>
        <time>2013-08-02T06:39:01Z</time>
      </trkpt>
      <trkpt lat="46.31918" lon="5.99148">
        <ele>1635.82</ele>
        <time>2013-08-02T06:39:11Z</time>
      </trkpt>
      <trkpt lat="46.31916" lon="5.99139">
        <ele>1636.78</ele>
        <time>2013-08-02T06:39:21Z</time>
      </trkpt>
      <trkpt lat="46.3191" lon="5.99132">
        <ele>1638.7</ele>
        <time>2013-08-02T06:39:31Z</time>
      </trkpt>
      <trkpt lat="46.31906" lon="5.99125">
        <ele>1640.15</ele>
        <time>2013-08-02T06:39:41Z</time>
      </trkpt>
      <trkpt lat="46.31901" lon="5.99118">
        <ele>1642.55</ele>
        <time>2013-08-02T06:39:51Z</time>
      </trkpt>
      <trkpt lat="46.31895" lon="5.99111">
        <ele>1643.03</ele>
        <time>2013-08-02T06:40:01Z</time>
      </trkpt>
      <trkpt lat="46.31888" lon="5.99104">
        <ele>1644.47</ele>
        <time>2013-08-02T06:40:11Z</time>
      </trkpt>
      <trkpt lat="46.31881" lon="5.99098">
        <ele>1644.47</ele>
        <time>2013-08-02T06:40:21Z</time>
      </trkpt>
      <trkpt lat="46.31874" lon="5.99091">
        <ele>1645.91</ele>
        <time>2013-08-02T06:40:31Z</time>
      </trkpt>
      <trkpt lat="46.31867" lon="5.99084">
        <ele>1646.88</ele>
        <time>2013-08-02T06:40:41Z</time>
      </trkpt>
      <trkpt lat="46.3186" lon="5.99082">
        <ele>1647.84</ele>
        <time>2013-08-02T06:40:51Z</time>
      </trkpt>
      <trkpt lat="46.31855" lon="5.99075">
        <ele>1649.76</ele>
        <time>2013-08-02T06:41:01Z</time>
      </trkpt>
      <trkpt lat="46.31851" lon="5.99068">
        <ele>1651.2</ele>
        <time>2013-08-02T06:41:11Z</time>
      </trkpt>
      <trkpt lat="46.31847" lon="5.99063">
        <ele>1652.64</ele>
        <time>2013-08-02T06:41:21Z</time>
      </trkpt>
      <trkpt lat="46.31842" lon="5.99054">
        <ele>1654.57</ele>
        <time>2013-08-02T06:41:31Z</time>
      </trkpt>
      <trkpt lat="46.31837" lon="5.99048">
        <ele>1655.53</ele>
        <time>2013-08-02T06:41:41Z</time>
      </trkpt>
      <trkpt lat="46.31832" lon="5.99042">
        <ele>1656.49</ele>
        <time>2013-08-02T06:41:51Z</time>
      </trkpt>
      <trkpt lat="46.31828" lon="5.99035">
        <ele>1658.89</ele>
        <time>2013-08-02T06:42:01Z</time>
      </trkpt>
      <trkpt lat="46.31823" lon="5.99026">
        <ele>1660.33</ele>
        <time>2013-08-02T06:42:11Z</time>
      </trkpt>
      <trkpt lat="46.31818" lon="5.99017">
        <ele>1661.3</ele>
        <time>2013-08-02T06:42:21Z</time>
      </trkpt>
      <trkpt lat="46.31811" lon="5.99011">
        <ele>1662.26</ele>
        <time>2013-08-02T06:42:31Z</time>
      </trkpt>
      <trkpt lat="46.31804" lon="5.99009">
        <ele>1661.78</ele>
        <time>2013-08-02T06:42:41Z</time>
      </trkpt>
      <trkpt lat="46.31797" lon="5.99005">
        <ele>1663.22</ele>
        <time>2013-08-02T06:42:51Z</time>
      </trkpt>
      <trkpt lat="46.31793" lon="5.99">
        <ele>1666.1</ele>
        <time>2013-08-02T06:43:01Z</time>
      </trkpt>
      <trkpt lat="46.31785" lon="5.98999">
        <ele>1665.14</ele>
        <time>2013-08-02T06:43:11Z</time>
      </trkpt>
      <trkpt lat="46.31778" lon="5.98993">
        <ele>1665.62</ele>
        <time>2013-08-02T06:43:21Z</time>
      </trkpt>
      <trkpt lat="46.31771" lon="5.98987">
        <ele>1665.14</ele>
        <time>2013-08-02T06:43:31Z</time>
      </trkpt>
      <trkpt lat="46.31762" lon="5.98983">
        <ele>1665.62</ele>
        <time>2013-08-02T06:43:41Z</time>
      </trkpt>
      <trkpt lat="46.31755" lon="5.98975">
        <ele>1666.58</ele>
        <time>2013-08-02T06:43:51Z</time>
      </trkpt>
      <trkpt lat="46.31748" lon="5.98967">
        <ele>1667.54</ele>
        <time>2013-08-02T06:44:01Z</time>
      </trkpt>
      <trkpt lat="46.31741" lon="5.98962">
        <ele>1667.54</ele>
        <time>2013-08-02T06:44:11Z</time>
      </trkpt>
      <trkpt lat="46.31733" lon="5.98955">
        <ele>1668.51</ele>
        <time>2013-08-02T06:44:21Z</time>
      </trkpt>
      <trkpt lat="46.31726" lon="5.98949">
        <ele>1670.43</ele>
        <time>2013-08-02T06:44:31Z</time>
      </trkpt>
      <trkpt lat="46.3172" lon="5.9894">
        <ele>1671.39</ele>
        <time>2013-08-02T06:44:41Z</time>
      </trkpt>
      <trkpt lat="46.31712" lon="5.98934">
        <ele>1671.87</ele>
        <time>2013-08-02T06:44:51Z</time>
      </trkpt>
      <trkpt lat="46.31711" lon="5.98929">
        <ele>1672.83</ele>
        <time>2013-08-02T06:45:01Z</time>
      </trkpt>
      <trkpt lat="46.3171" lon="5.98931">
        <ele>1673.31</ele>
        <time>2013-08-02T06:45:11Z</time>
      </trkpt>
      <trkpt lat="46.31702" lon="5.98921">
        <ele>1672.83</ele>
        <time>2013-08-02T06:45:21Z</time>
      </trkpt>
      <trkpt lat="46.31695" lon="5.98911">
        <ele>1675.72</ele>
        <time>2013-08-02T06:45:31Z</time>
      </trkpt>
      <trkpt lat="46.31688" lon="5.98902">
        <ele>1675.72</ele>
        <time>2013-08-02T06:45:41Z</time>
      </trkpt>
      <trkpt lat="46.31681" lon="5.98894">
        <ele>1672.83</ele>
        <time>2013-08-02T06:45:51Z</time>
      </trkpt>
      <trkpt lat="46.31673" lon="5.98886">
        <ele>1677.16</ele>
        <time>2013-08-02T06:46:01Z</time>
      </trkpt>
      <trkpt lat="46.31665" lon="5.9888">
        <ele>1673.31</ele>
        <time>2013-08-02T06:46:11Z</time>
      </trkpt>
      <trkpt lat="46.3166" lon="5.98878">
        <ele>1670.91</ele>
        <time>2013-08-02T06:46:21Z</time>
      </trkpt>
      <trkpt lat="46.31652" lon="5.98871">
        <ele>1669.47</ele>
        <time>2013-08-02T06:46:31Z</time>
      </trkpt>
      <trkpt lat="46.31644" lon="5.98868">
        <ele>1671.39</ele>
        <time>2013-08-02T06:46:41Z</time>
      </trkpt>
      <trkpt lat="46.31636" lon="5.98863">
        <ele>1665.14</ele>
        <time>2013-08-02T06:46:51Z</time>
      </trkpt>
      <trkpt lat="46.3163" lon="5.9886">
        <ele>1661.3</ele>
        <time>2013-08-02T06:47:01Z</time>
      </trkpt>
      <trkpt lat="46.31621" lon="5.98856">
        <ele>1661.3</ele>
        <time>2013-08-02T06:47:11Z</time>
      </trkpt>
      <trkpt lat="46.31613" lon="5.98853">
        <ele>1660.81</ele>
        <time>2013-08-02T06:47:21Z</time>
      </trkpt>
      <trkpt lat="46.31613" lon="5.9885">
        <ele>1661.3</ele>
        <time>2013-08-02T06:47:31Z</time>
      </trkpt>
      <trkpt lat="46.31611" lon="5.98851">
        <ele>1659.37</ele>
        <time>2013-08-02T06:47:41Z</time>
      </trkpt>
      <trkpt lat="46.31603" lon="5.98847">
        <ele>1655.53</ele>
        <time>2013-08-02T06:47:51Z</time>
      </trkpt>
      <trkpt lat="46.31595" lon="5.98843">
        <ele>1649.28</ele>
        <time>2013-08-02T06:48:01Z</time>
      </trkpt>
      <trkpt lat="46.31587" lon="5.98839">
        <ele>1650.72</ele>
        <time>2013-08-02T06:48:11Z</time>
      </trkpt>
      <trkpt lat="46.31579" lon="5.98833">
        <ele>1645.43</ele>
        <time>2013-08-02T06:48:21Z</time>
      </trkpt>
      <trkpt lat="46.31573" lon="5.98829">
        <ele>1643.99</ele>
        <time>2013-08-02T06:48:31Z</time>
      </trkpt>
      <trkpt lat="46.31565" lon="5.98825">
        <ele>1638.7</ele>
        <time>2013-08-02T06:48:41Z</time>
      </trkpt>
      <trkpt lat="46.31558" lon="5.98821">
        <ele>1637.74</ele>
        <time>2013-08-02T06:48:51Z</time>
      </trkpt>
      <trkpt lat="46.31552" lon="5.98817">
        <ele>1634.86</ele>
        <time>2013-08-02T06:49:01Z</time>
      </trkpt>
      <trkpt lat="46.31547" lon="5.9881">
        <ele>1631.49</ele>
        <time>2013-08-02T06:49:11Z</time>
      </trkpt>
      <trkpt lat="46.3154" lon="5.98807">
        <ele>1627.65</ele>
        <time>2013-08-02T06:49:21Z</time>
      </trkpt>
      <trkpt lat="46.31535" lon="5.988">
        <ele>1625.73</ele>
        <time>2013-08-02T06:49:31Z</time>
      </trkpt>
      <trkpt lat="46.31527" lon="5.98799">
        <ele>1623.32</ele>
        <time>2013-08-02T06:49:41Z</time>
      </trkpt>
      <trkpt lat="46.31526" lon="5.98798">
        <ele>1622.36</ele>
        <time>2013-08-02T06:49:51Z</time>
      </trkpt>
      <trkpt lat="46.31521" lon="5.98794">
        <ele>1619</ele>
        <time>2013-08-02T06:50:01Z</time>
      </trkpt>
      <trkpt lat="46.31514" lon="5.98791">
        <ele>1617.07</ele>
        <time>2013-08-02T06:50:11Z</time>
      </trkpt>
      <trkpt lat="46.31507" lon="5.98786">
        <ele>1615.63</ele>
        <time>2013-08-02T06:50:21Z</time>
      </trkpt>
      <trkpt lat="46.315" lon="5.98778">
        <ele>1612.27</ele>
        <time>2013-08-02T06:50:31Z</time>
      </trkpt>
      <trkpt lat="46.31494" lon="5.9877">
        <ele>1607.94</ele>
        <time>2013-08-02T06:50:41Z</time>
      </trkpt>
      <trkpt lat="46.31489" lon="5.98764">
        <ele>1605.54</ele>
        <time>2013-08-02T06:50:51Z</time>
      </trkpt>
      <trkpt lat="46.31485" lon="5.98758">
        <ele>1604.58</ele>
        <time>2013-08-02T06:51:01Z</time>
      </trkpt>
      <trkpt lat="46.31486" lon="5.98759">
        <ele>1603.62</ele>
        <time>2013-08-02T06:51:11Z</time>
      </trkpt>
      <trkpt lat="46.31478" lon="5.98752">
        <ele>1602.17</ele>
        <time>2013-08-02T06:51:21Z</time>
      </trkpt>
      <trkpt lat="46.3147" lon="5.98743">
        <ele>1598.81</ele>
        <time>2013-08-02T06:51:31Z</time>
      </trkpt>
      <trkpt lat="46.31463" lon="5.98734">
        <ele>1595.45</ele>
        <time>2013-08-02T06:51:41Z</time>
      </trkpt>
      <trkpt lat="46.3146" lon="5.9872">
        <ele>1592.56</ele>
        <time>2013-08-02T06:51:51Z</time>
      </trkpt>
      <trkpt lat="46.31453" lon="5.9871">
        <ele>1591.12</ele>
        <time>2013-08-02T06:52:01Z</time>
      </trkpt>
      <trkpt lat="46.31446" lon="5.98698">
        <ele>1589.2</ele>
        <time>2013-08-02T06:52:11Z</time>
      </trkpt>
      <trkpt lat="46.31442" lon="5.9869">
        <ele>1587.27</ele>
        <time>2013-08-02T06:52:21Z</time>
      </trkpt>
      <trkpt lat="46.31433" lon="5.98682">
        <ele>1586.31</ele>
        <time>2013-08-02T06:52:31Z</time>
      </trkpt>
      <trkpt lat="46.31424" lon="5.98673">
        <ele>1582.47</ele>
        <time>2013-08-02T06:52:41Z</time>
      </trkpt>
      <trkpt lat="46.31416" lon="5.98661">
        <ele>1582.95</ele>
        <time>2013-08-02T06:52:51Z</time>
      </trkpt>
      <trkpt lat="46.31406" lon="5.98651">
        <ele>1581.99</ele>
        <time>2013-08-02T06:53:01Z</time>
      </trkpt>
      <trkpt lat="46.31395" lon="5.98646">
        <ele>1581.03</ele>
        <time>2013-08-02T06:53:11Z</time>
      </trkpt>
      <trkpt lat="46.31384" lon="5.98638">
        <ele>1580.06</ele>
        <time>2013-08-02T06:53:21Z</time>
      </trkpt>
      <trkpt lat="46.31372" lon="5.98635">
        <ele>1581.03</ele>
        <time>2013-08-02T06:53:31Z</time>
      </trkpt>
      <trkpt lat="46.3136" lon="5.98628">
        <ele>1579.1</ele>
        <time>2013-08-02T06:53:41Z</time>
      </trkpt>
      <trkpt lat="46.31349" lon="5.98622">
        <ele>1579.58</ele>
        <time>2013-08-02T06:53:51Z</time>
      </trkpt>
      <trkpt lat="46.31339" lon="5.98614">
        <ele>1579.58</ele>
        <time>2013-08-02T06:54:01Z</time>
      </trkpt>
      <trkpt lat="46.31336" lon="5.98611">
        <ele>1580.54</ele>
        <time>2013-08-02T06:54:11Z</time>
      </trkpt>
      <trkpt lat="46.31329" lon="5.98607">
        <ele>1579.58</ele>
        <time>2013-08-02T06:54:21Z</time>
      </trkpt>
      <trkpt lat="46.31318" lon="5.986">
        <ele>1579.1</ele>
        <time>2013-08-02T06:54:31Z</time>
      </trkpt>
      <trkpt lat="46.31309" lon="5.98593">
        <ele>1581.99</ele>
        <time>2013-08-02T06:54:41Z</time>
      </trkpt>
      <trkpt lat="46.31299" lon="5.98587">
        <ele>1581.03</ele>
        <time>2013-08-02T06:54:51Z</time>
      </trkpt>
      <trkpt lat="46.31289" lon="5.98585">
        <ele>1581.51</ele>
        <time>2013-08-02T06:55:01Z</time>
      </trkpt>
      <trkpt lat="46.31279" lon="5.98584">
        <ele>1582.47</ele>
        <time>2013-08-02T06:55:11Z</time>
      </trkpt>
      <trkpt lat="46.31271" lon="5.98576">
        <ele>1586.79</ele>
        <time>2013-08-02T06:55:21Z</time>
      </trkpt>
      <trkpt lat="46.31265" lon="5.9857">
        <ele>1586.79</ele>
        <time>2013-08-02T06:55:31Z</time>
      </trkpt>
      <trkpt lat="46.31256" lon="5.9856">
        <ele>1586.79</ele>
        <time>2013-08-02T06:55:41Z</time>
      </trkpt>
      <trkpt lat="46.31248" lon="5.98556">
        <ele>1587.75</ele>
        <time>2013-08-02T06:55:51Z</time>
      </trkpt>
      <trkpt lat="46.31236" lon="5.9855">
        <ele>1586.79</ele>
        <time>2013-08-02T06:56:01Z</time>
      </trkpt>
      <trkpt lat="46.31227" lon="5.98544">
        <ele>1588.24</ele>
        <time>2013-08-02T06:56:11Z</time>
      </trkpt>
      <trkpt lat="46.31218" lon="5.98541">
        <ele>1588.24</ele>
        <time>2013-08-02T06:56:21Z</time>
      </trkpt>
      <trkpt lat="46.3121" lon="5.98536">
        <ele>1591.12</ele>
        <time>2013-08-02T06:56:31Z</time>
      </trkpt>
      <trkpt lat="46.31211" lon="5.98533">
        <ele>1591.12</ele>
        <time>2013-08-02T06:56:41Z</time>
      </trkpt>
      <trkpt lat="46.31207" lon="5.98534">
        <ele>1591.12</ele>
        <time>2013-08-02T06:56:51Z</time>
      </trkpt>
      <trkpt lat="46.31199" lon="5.98531">
        <ele>1591.6</ele>
        <time>2013-08-02T06:57:01Z</time>
      </trkpt>
      <trkpt lat="46.31189" lon="5.98528">
        <ele>1591.12</ele>
        <time>2013-08-02T06:57:11Z</time>
      </trkpt>
      <trkpt lat="46.31181" lon="5.98525">
        <ele>1592.08</ele>
        <time>2013-08-02T06:57:21Z</time>
      </trkpt>
      <trkpt lat="46.31172" lon="5.98521">
        <ele>1594</ele>
        <time>2013-08-02T06:57:31Z</time>
      </trkpt>
      <trkpt lat="46.31164" lon="5.98516">
        <ele>1594.48</ele>
        <time>2013-08-02T06:57:41Z</time>
      </trkpt>
      <trkpt lat="46.31157" lon="5.98508">
        <ele>1595.93</ele>
        <time>2013-08-02T06:57:51Z</time>
      </trkpt>
      <trkpt lat="46.31152" lon="5.98498">
        <ele>1597.85</ele>
        <time>2013-08-02T06:58:01Z</time>
      </trkpt>
      <trkpt lat="46.31147" lon="5.9849">
        <ele>1598.33</ele>
        <time>2013-08-02T06:58:11Z</time>
      </trkpt>
      <trkpt lat="46.31144" lon="5.98479">
        <ele>1599.29</ele>
        <time>2013-08-02T06:58:21Z</time>
      </trkpt>
      <trkpt lat="46.31138" lon="5.98467">
        <ele>1600.73</ele>
        <time>2013-08-02T06:58:31Z</time>
      </trkpt>
      <trkpt lat="46.31133" lon="5.98457">
        <ele>1601.21</ele>
        <time>2013-08-02T06:58:41Z</time>
      </trkpt>
      <trkpt lat="46.31128" lon="5.98444">
        <ele>1600.73</ele>
        <time>2013-08-02T06:58:51Z</time>
      </trkpt>
      <trkpt lat="46.31125" lon="5.98431">
        <ele>1601.21</ele>
        <time>2013-08-02T06:59:01Z</time>
      </trkpt>
      <trkpt lat="46.31126" lon="5.98417">
        <ele>1601.21</ele>
        <time>2013-08-02T06:59:11Z</time>
      </trkpt>
      <trkpt lat="46.31125" lon="5.98405">
        <ele>1601.21</ele>
        <time>2013-08-02T06:59:21Z</time>
      </trkpt>
      <trkpt lat="46.31124" lon="5.98395">
        <ele>1602.66</ele>
        <time>2013-08-02T06:59:31Z</time>
      </trkpt>
      <trkpt lat="46.31122" lon="5.98395">
        <ele>1604.1</ele>
        <time>2013-08-02T06:59:41Z</time>
      </trkpt>
      <trkpt lat="46.31123" lon="5.98393">
        <ele>1604.58</ele>
        <time>2013-08-02T06:59:51Z</time>
      </trkpt>
      <trkpt lat="46.31124" lon="5.98394">
        <ele>1604.1</ele>
        <time>2013-08-02T07:00:01Z</time>
      </trkpt>
      <trkpt lat="46.31123" lon="5.98393">
        <ele>1604.58</ele>
        <time>2013-08-02T07:00:11Z</time>
      </trkpt>
      <trkpt lat="46.31124" lon="5.98394">
        <ele>1604.1</ele>
        <time>2013-08-02T07:00:21Z</time>
      </trkpt>
      <trkpt lat="46.3112" lon="5.98394">
        <ele>1604.58</ele>
        <time>2013-08-02T07:00:31Z</time>
      </trkpt>
      <trkpt lat="46.31113" lon="5.98388">
        <ele>1605.54</ele>
        <time>2013-08-02T07:00:41Z</time>
      </trkpt>
      <trkpt lat="46.31107" lon="5.98381">
        <ele>1606.98</ele>
        <time>2013-08-02T07:00:51Z</time>
      </trkpt>
      <trkpt lat="46.311" lon="5.98374">
        <ele>1607.46</ele>
        <time>2013-08-02T07:01:01Z</time>
      </trkpt>
      <trkpt lat="46.31091" lon="5.98366">
        <ele>1608.42</ele>
        <time>2013-08-02T07:01:11Z</time>
      </trkpt>
      <trkpt lat="46.31083" lon="5.9836">
        <ele>1608.9</ele>
        <time>2013-08-02T07:01:21Z</time>
      </trkpt>
      <trkpt lat="46.31074" lon="5.98361">
        <ele>1611.31</ele>
        <time>2013-08-02T07:01:31Z</time>
      </trkpt>
      <trkpt lat="46.31064" lon="5.98358">
        <ele>1612.27</ele>
        <time>2013-08-02T07:01:41Z</time>
      </trkpt>
      <trkpt lat="46.31055" lon="5.98353">
        <ele>1611.79</ele>
        <time>2013-08-02T07:01:51Z</time>
      </trkpt>
      <trkpt lat="46.31045" lon="5.98348">
        <ele>1612.27</ele>
        <time>2013-08-02T07:02:01Z</time>
      </trkpt>
      <trkpt lat="46.31035" lon="5.98348">
        <ele>1612.27</ele>
        <time>2013-08-02T07:02:11Z</time>
      </trkpt>
      <trkpt lat="46.31023" lon="5.98346">
        <ele>1611.31</ele>
        <time>2013-08-02T07:02:21Z</time>
      </trkpt>
      <trkpt lat="46.31012" lon="5.98343">
        <ele>1613.23</ele>
        <time>2013-08-02T07:02:31Z</time>
      </trkpt>
      <trkpt lat="46.31" lon="5.98341">
        <ele>1612.27</ele>
        <time>2013-08-02T07:02:41Z</time>
      </trkpt>
      <trkpt lat="46.30992" lon="5.98342">
        <ele>1611.31</ele>
        <time>2013-08-02T07:02:51Z</time>
      </trkpt>
      <trkpt lat="46.30981" lon="5.98341">
        <ele>1610.35</ele>
        <time>2013-08-02T07:03:01Z</time>
      </trkpt>
      <trkpt lat="46.30971" lon="5.98342">
        <ele>1608.9</ele>
        <time>2013-08-02T07:03:11Z</time>
      </trkpt>
      <trkpt lat="46.3096" lon="5.98337">
        <ele>1607.94</ele>
        <time>2013-08-02T07:03:21Z</time>
      </trkpt>
      <trkpt lat="46.3095" lon="5.98334">
        <ele>1606.02</ele>
        <time>2013-08-02T07:03:31Z</time>
      </trkpt>
      <trkpt lat="46.30939" lon="5.98331">
        <ele>1606.5</ele>
        <time>2013-08-02T07:03:41Z</time>
      </trkpt>
      <trkpt lat="46.30928" lon="5.98327">
        <ele>1605.06</ele>
        <time>2013-08-02T07:03:51Z</time>
      </trkpt>
      <trkpt lat="46.30918" lon="5.98328">
        <ele>1604.1</ele>
        <time>2013-08-02T07:04:01Z</time>
      </trkpt>
      <trkpt lat="46.30909" lon="5.98323">
        <ele>1603.14</ele>
        <time>2013-08-02T07:04:11Z</time>
      </trkpt>
      <trkpt lat="46.30898" lon="5.98318">
        <ele>1602.17</ele>
        <time>2013-08-02T07:04:21Z</time>
      </trkpt>
      <trkpt lat="46.3089" lon="5.9831">
        <ele>1600.73</ele>
        <time>2013-08-02T07:04:31Z</time>
      </trkpt>
      <trkpt lat="46.30882" lon="5.98301">
        <ele>1599.29</ele>
        <time>2013-08-02T07:04:41Z</time>
      </trkpt>
      <trkpt lat="46.30874" lon="5.98291">
        <ele>1596.89</ele>
        <time>2013-08-02T07:04:51Z</time>
      </trkpt>
      <trkpt lat="46.30867" lon="5.98281">
        <ele>1596.89</ele>
        <time>2013-08-02T07:05:01Z</time>
      </trkpt>
      <trkpt lat="46.30856" lon="5.98272">
        <ele>1594.48</ele>
        <time>2013-08-02T07:05:11Z</time>
      </trkpt>
      <trkpt lat="46.30844" lon="5.98265">
        <ele>1594.48</ele>
        <time>2013-08-02T07:05:21Z</time>
      </trkpt>
      <trkpt lat="46.30834" lon="5.98255">
        <ele>1593.04</ele>
        <time>2013-08-02T07:05:31Z</time>
      </trkpt>
      <trkpt lat="46.30824" lon="5.98248">
        <ele>1593.04</ele>
        <time>2013-08-02T07:05:41Z</time>
      </trkpt>
      <trkpt lat="46.30814" lon="5.98239">
        <ele>1591.6</ele>
        <time>2013-08-02T07:05:51Z</time>
      </trkpt>
      <trkpt lat="46.30803" lon="5.98233">
        <ele>1590.16</ele>
        <time>2013-08-02T07:06:01Z</time>
      </trkpt>
      <trkpt lat="46.30791" lon="5.9823">
        <ele>1590.16</ele>
        <time>2013-08-02T07:06:11Z</time>
      </trkpt>
      <trkpt lat="46.30779" lon="5.98231">
        <ele>1591.6</ele>
        <time>2013-08-02T07:06:21Z</time>
      </trkpt>
      <trkpt lat="46.30768" lon="5.98234">
        <ele>1591.12</ele>
        <time>2013-08-02T07:06:31Z</time>
      </trkpt>
      <trkpt lat="46.30759" lon="5.98227">
        <ele>1591.6</ele>
        <time>2013-08-02T07:06:41Z</time>
      </trkpt>
      <trkpt lat="46.30751" lon="5.98222">
        <ele>1593.04</ele>
        <time>2013-08-02T07:06:51Z</time>
      </trkpt>
      <trkpt lat="46.30745" lon="5.98213">
        <ele>1593.52</ele>
        <time>2013-08-02T07:07:01Z</time>
      </trkpt>
      <trkpt lat="46.30736" lon="5.98208">
        <ele>1594.96</ele>
        <time>2013-08-02T07:07:11Z</time>
      </trkpt>
      <trkpt lat="46.30731" lon="5.98205">
        <ele>1596.41</ele>
        <time>2013-08-02T07:07:21Z</time>
      </trkpt>
      <trkpt lat="46.30725" lon="5.98201">
        <ele>1594.48</ele>
        <time>2013-08-02T07:07:31Z</time>
      </trkpt>
      <trkpt lat="46.30714" lon="5.98193">
        <ele>1595.45</ele>
        <time>2013-08-02T07:07:41Z</time>
      </trkpt>
      <trkpt lat="46.30702" lon="5.98186">
        <ele>1593.52</ele>
        <time>2013-08-02T07:07:51Z</time>
      </trkpt>
      <trkpt lat="46.30691" lon="5.98179">
        <ele>1594</ele>
        <time>2013-08-02T07:08:01Z</time>
      </trkpt>
      <trkpt lat="46.30679" lon="5.98172">
        <ele>1593.52</ele>
        <time>2013-08-02T07:08:11Z</time>
      </trkpt>
      <trkpt lat="46.30667" lon="5.98166">
        <ele>1593.04</ele>
        <time>2013-08-02T07:08:21Z</time>
      </trkpt>
      <trkpt lat="46.30655" lon="5.98162">
        <ele>1594</ele>
        <time>2013-08-02T07:08:31Z</time>
      </trkpt>
      <trkpt lat="46.30645" lon="5.98154">
        <ele>1592.08</ele>
        <time>2013-08-02T07:08:41Z</time>
      </trkpt>
      <trkpt lat="46.30634" lon="5.98148">
        <ele>1592.08</ele>
        <time>2013-08-02T07:08:51Z</time>
      </trkpt>
      <trkpt lat="46.30624" lon="5.98139">
        <ele>1593.04</ele>
        <time>2013-08-02T07:09:01Z</time>
      </trkpt>
      <trkpt lat="46.30614" lon="5.98129">
        <ele>1593.04</ele>
        <time>2013-08-02T07:09:11Z</time>
      </trkpt>
      <trkpt lat="46.30602" lon="5.98121">
        <ele>1591.6</ele>
        <time>2013-08-02T07:09:21Z</time>
      </trkpt>
      <trkpt lat="46.30591" lon="5.98112">
        <ele>1593.04</ele>
        <time>2013-08-02T07:09:31Z</time>
      </trkpt>
      <trkpt lat="46.30579" lon="5.98104">
        <ele>1594</ele>
        <time>2013-08-02T07:09:41Z</time>
      </trkpt>
      <trkpt lat="46.30576" lon="5.981">
        <ele>1591.12</ele>
        <time>2013-08-02T07:09:51Z</time>
      </trkpt>
      <trkpt lat="46.30576" lon="5.981">
        <ele>1591.6</ele>
        <time>2013-08-02T07:10:01Z</time>
      </trkpt>
      <trkpt lat="46.30576" lon="5.981">
        <ele>1593.04</ele>
        <time>2013-08-02T07:10:11Z</time>
      </trkpt>
      <trkpt lat="46.30576" lon="5.98099">
        <ele>1594</ele>
        <time>2013-08-02T07:10:21Z</time>
      </trkpt>
      <trkpt lat="46.30576" lon="5.981">
        <ele>1591.6</ele>
        <time>2013-08-02T07:10:31Z</time>
      </trkpt>
      <trkpt lat="46.30576" lon="5.981">
        <ele>1591.6</ele>
        <time>2013-08-02T07:10:41Z</time>
      </trkpt>
      <trkpt lat="46.30575" lon="5.98102">
        <ele>1591.12</ele>
        <time>2013-08-02T07:10:51Z</time>
      </trkpt>
      <trkpt lat="46.30577" lon="5.98102">
        <ele>1592.08</ele>
        <time>2013-08-02T07:11:01Z</time>
      </trkpt>
      <trkpt lat="46.30575" lon="5.98101">
        <ele>1591.6</ele>
        <time>2013-08-02T07:11:11Z</time>
      </trkpt>
      <trkpt lat="46.30575" lon="5.981">
        <ele>1591.6</ele>
        <time>2013-08-02T07:11:21Z</time>
      </trkpt>
      <trkpt lat="46.30576" lon="5.98099">
        <ele>1591.12</ele>
        <time>2013-08-02T07:11:31Z</time>
      </trkpt>
      <trkpt lat="46.30577" lon="5.98101">
        <ele>1592.08</ele>
        <time>2013-08-02T07:11:41Z</time>
      </trkpt>
      <trkpt lat="46.30577" lon="5.98099">
        <ele>1592.08</ele>
        <time>2013-08-02T07:11:51Z</time>
      </trkpt>
      <trkpt lat="46.30576" lon="5.98097">
        <ele>1591.6</ele>
        <time>2013-08-02T07:12:01Z</time>
      </trkpt>
      <trkpt lat="46.30576" lon="5.981">
        <ele>1591.6</ele>
        <time>2013-08-02T07:12:11Z</time>
      </trkpt>
      <trkpt lat="46.30576" lon="5.981">
        <ele>1592.08</ele>
        <time>2013-08-02T07:12:21Z</time>
      </trkpt>
      <trkpt lat="46.30576" lon="5.981">
        <ele>1592.08</ele>
        <time>2013-08-02T07:12:31Z</time>
      </trkpt>
      <trkpt lat="46.30576" lon="5.98102">
        <ele>1592.56</ele>
        <time>2013-08-02T07:12:41Z</time>
      </trkpt>
      <trkpt lat="46.30575" lon="5.98101">
        <ele>1593.04</ele>
        <time>2013-08-02T07:12:51Z</time>
      </trkpt>
      <trkpt lat="46.30574" lon="5.981">
        <ele>1592.56</ele>
        <time>2013-08-02T07:13:01Z</time>
      </trkpt>
      <trkpt lat="46.30575" lon="5.981">
        <ele>1592.08</ele>
        <time>2013-08-02T07:13:11Z</time>
      </trkpt>
      <trkpt lat="46.30574" lon="5.98102">
        <ele>1591.6</ele>
        <time>2013-08-02T07:13:21Z</time>
      </trkpt>
      <trkpt lat="46.30575" lon="5.98102">
        <ele>1591.12</ele>
        <time>2013-08-02T07:13:31Z</time>
      </trkpt>
      <trkpt lat="46.30575" lon="5.98103">
        <ele>1591.6</ele>
        <time>2013-08-02T07:13:41Z</time>
      </trkpt>
      <trkpt lat="46.30576" lon="5.98102">
        <ele>1590.64</ele>
        <time>2013-08-02T07:13:51Z</time>
      </trkpt>
      <trkpt lat="46.30576" lon="5.98103">
        <ele>1590.64</ele>
        <time>2013-08-02T07:14:01Z</time>
      </trkpt>
      <trkpt lat="46.30576" lon="5.98103">
        <ele>1591.12</ele>
        <time>2013-08-02T07:14:11Z</time>
      </trkpt>
      <trkpt lat="46.30576" lon="5.98101">
        <ele>1590.64</ele>
        <time>2013-08-02T07:14:21Z</time>
      </trkpt>
      <trkpt lat="46.30576" lon="5.98101">
        <ele>1591.12</ele>
        <time>2013-08-02T07:14:31Z</time>
      </trkpt>
      <trkpt lat="46.30576" lon="5.98102">
        <ele>1591.12</ele>
        <time>2013-08-02T07:14:41Z</time>
      </trkpt>
      <trkpt lat="46.30576" lon="5.98103">
        <ele>1591.12</ele>
        <time>2013-08-02T07:14:51Z</time>
      </trkpt>
      <trkpt lat="46.30576" lon="5.98101">
        <ele>1592.08</ele>
        <time>2013-08-02T07:15:01Z</time>
      </trkpt>
      <trkpt lat="46.30576" lon="5.98101">
        <ele>1591.6</ele>
        <time>2013-08-02T07:15:11Z</time>
      </trkpt>
      <trkpt lat="46.30576" lon="5.98101">
        <ele>1592.08</ele>
        <time>2013-08-02T07:15:21Z</time>
      </trkpt>
      <trkpt lat="46.30576" lon="5.98101">
        <ele>1591.6</ele>
        <time>2013-08-02T07:15:31Z</time>
      </trkpt>
      <trkpt lat="46.30576" lon="5.98101">
        <ele>1592.08</ele>
        <time>2013-08-02T07:15:41Z</time>
      </trkpt>
      <trkpt lat="46.30576" lon="5.98101">
        <ele>1591.6</ele>
        <time>2013-08-02T07:15:51Z</time>
      </trkpt>
      <trkpt lat="46.30576" lon="5.98101">
        <ele>1592.08</ele>
        <time>2013-08-02T07:16:01Z</time>
      </trkpt>
      <trkpt lat="46.30576" lon="5.98102">
        <ele>1592.08</ele>
        <time>2013-08-02T07:16:11Z</time>
      </trkpt>
      <trkpt lat="46.30576" lon="5.98101">
        <ele>1591.6</ele>
        <time>2013-08-02T07:16:21Z</time>
      </trkpt>
      <trkpt lat="46.30576" lon="5.98101">
        <ele>1592.08</ele>
        <time>2013-08-02T07:16:31Z</time>
      </trkpt>
      <trkpt lat="46.30576" lon="5.98101">
        <ele>1592.56</ele>
        <time>2013-08-02T07:16:41Z</time>
      </trkpt>
      <trkpt lat="46.30576" lon="5.98102">
        <ele>1591.6</ele>
        <time>2013-08-02T07:16:51Z</time>
      </trkpt>
      <trkpt lat="46.30576" lon="5.98102">
        <ele>1592.08</ele>
        <time>2013-08-02T07:17:01Z</time>
      </trkpt>
      <trkpt lat="46.30575" lon="5.98102">
        <ele>1592.08</ele>
        <time>2013-08-02T07:17:11Z</time>
      </trkpt>
      <trkpt lat="46.30575" lon="5.98102">
        <ele>1593.04</ele>
        <time>2013-08-02T07:17:21Z</time>
      </trkpt>
      <trkpt lat="46.30574" lon="5.98102">
        <ele>1593.52</ele>
        <time>2013-08-02T07:17:31Z</time>
      </trkpt>
      <trkpt lat="46.30574" lon="5.98102">
        <ele>1592.56</ele>
        <time>2013-08-02T07:17:41Z</time>
      </trkpt>
      <trkpt lat="46.30575" lon="5.98101">
        <ele>1592.56</ele>
        <time>2013-08-02T07:17:51Z</time>
      </trkpt>
      <trkpt lat="46.30574" lon="5.98101">
        <ele>1592.08</ele>
        <time>2013-08-02T07:18:01Z</time>
      </trkpt>
      <trkpt lat="46.30575" lon="5.98101">
        <ele>1591.6</ele>
        <time>2013-08-02T07:18:11Z</time>
      </trkpt>
      <trkpt lat="46.30575" lon="5.981">
        <ele>1591.12</ele>
        <time>2013-08-02T07:18:21Z</time>
      </trkpt>
      <trkpt lat="46.30574" lon="5.98099">
        <ele>1591.6</ele>
        <time>2013-08-02T07:18:31Z</time>
      </trkpt>
      <trkpt lat="46.30575" lon="5.98099">
        <ele>1592.08</ele>
        <time>2013-08-02T07:18:41Z</time>
      </trkpt>
      <trkpt lat="46.30575" lon="5.98098">
        <ele>1593.04</ele>
        <time>2013-08-02T07:18:51Z</time>
      </trkpt>
      <trkpt lat="46.30576" lon="5.981">
        <ele>1593.52</ele>
        <time>2013-08-02T07:19:01Z</time>
      </trkpt>
      <trkpt lat="46.30576" lon="5.98098">
        <ele>1592.56</ele>
        <time>2013-08-02T07:19:11Z</time>
      </trkpt>
      <trkpt lat="46.30577" lon="5.98101">
        <ele>1593.04</ele>
        <time>2013-08-02T07:19:21Z</time>
      </trkpt>
      <trkpt lat="46.30576" lon="5.98102">
        <ele>1593.04</ele>
        <time>2013-08-02T07:19:31Z</time>
      </trkpt>
      <trkpt lat="46.30572" lon="5.98099">
        <ele>1593.52</ele>
        <time>2013-08-02T07:19:41Z</time>
      </trkpt>
      <trkpt lat="46.30563" lon="5.98093">
        <ele>1593.52</ele>
        <time>2013-08-02T07:19:51Z</time>
      </trkpt>
      <trkpt lat="46.30554" lon="5.98088">
        <ele>1594.48</ele>
        <time>2013-08-02T07:20:01Z</time>
      </trkpt>
      <trkpt lat="46.30545" lon="5.98087">
        <ele>1595.45</ele>
        <time>2013-08-02T07:20:11Z</time>
      </trkpt>
      <trkpt lat="46.30537" lon="5.98081">
        <ele>1597.37</ele>
        <time>2013-08-02T07:20:21Z</time>
      </trkpt>
      <trkpt lat="46.30528" lon="5.98075">
        <ele>1597.85</ele>
        <time>2013-08-02T07:20:31Z</time>
      </trkpt>
      <trkpt lat="46.30519" lon="5.98069">
        <ele>1599.29</ele>
        <time>2013-08-02T07:20:41Z</time>
      </trkpt>
      <trkpt lat="46.30512" lon="5.98066">
        <ele>1601.21</ele>
        <time>2013-08-02T07:20:51Z</time>
      </trkpt>
      <trkpt lat="46.30504" lon="5.98061">
        <ele>1601.69</ele>
        <time>2013-08-02T07:21:01Z</time>
      </trkpt>
      <trkpt lat="46.30498" lon="5.98058">
        <ele>1603.62</ele>
        <time>2013-08-02T07:21:11Z</time>
      </trkpt>
      <trkpt lat="46.30493" lon="5.98052">
        <ele>1605.54</ele>
        <time>2013-08-02T07:21:21Z</time>
      </trkpt>
      <trkpt lat="46.30485" lon="5.98049">
        <ele>1606.98</ele>
        <time>2013-08-02T07:21:31Z</time>
      </trkpt>
      <trkpt lat="46.30479" lon="5.98046">
        <ele>1608.9</ele>
        <time>2013-08-02T07:21:41Z</time>
      </trkpt>
      <trkpt lat="46.30475" lon="5.98042">
        <ele>1611.31</ele>
        <time>2013-08-02T07:21:51Z</time>
      </trkpt>
      <trkpt lat="46.3047" lon="5.98036">
        <ele>1612.75</ele>
        <time>2013-08-02T07:22:01Z</time>
      </trkpt>
      <trkpt lat="46.30464" lon="5.98031">
        <ele>1615.15</ele>
        <time>2013-08-02T07:22:11Z</time>
      </trkpt>
      <trkpt lat="46.30458" lon="5.98023">
        <ele>1616.11</ele>
        <time>2013-08-02T07:22:21Z</time>
      </trkpt>
      <trkpt lat="46.30453" lon="5.98013">
        <ele>1617.07</ele>
        <time>2013-08-02T07:22:31Z</time>
      </trkpt>
      <trkpt lat="46.30445" lon="5.98006">
        <ele>1617.07</ele>
        <time>2013-08-02T07:22:41Z</time>
      </trkpt>
      <trkpt lat="46.30437" lon="5.97996">
        <ele>1618.04</ele>
        <time>2013-08-02T07:22:51Z</time>
      </trkpt>
      <trkpt lat="46.30433" lon="5.97993">
        <ele>1621.4</ele>
        <time>2013-08-02T07:23:01Z</time>
      </trkpt>
      <trkpt lat="46.30432" lon="5.97989">
        <ele>1617.56</ele>
        <time>2013-08-02T07:23:11Z</time>
      </trkpt>
      <trkpt lat="46.30426" lon="5.97974">
        <ele>1617.07</ele>
        <time>2013-08-02T07:23:21Z</time>
      </trkpt>
      <trkpt lat="46.30425" lon="5.97973">
        <ele>1616.11</ele>
        <time>2013-08-02T07:23:31Z</time>
      </trkpt>
      <trkpt lat="46.3042" lon="5.97959">
        <ele>1614.67</ele>
        <time>2013-08-02T07:23:41Z</time>
      </trkpt>
      <trkpt lat="46.30415" lon="5.97942">
        <ele>1613.23</ele>
        <time>2013-08-02T07:23:51Z</time>
      </trkpt>
      <trkpt lat="46.30411" lon="5.97924">
        <ele>1612.27</ele>
        <time>2013-08-02T07:24:01Z</time>
      </trkpt>
      <trkpt lat="46.30403" lon="5.97908">
        <ele>1610.35</ele>
        <time>2013-08-02T07:24:11Z</time>
      </trkpt>
      <trkpt lat="46.30394" lon="5.97897">
        <ele>1610.35</ele>
        <time>2013-08-02T07:24:21Z</time>
      </trkpt>
      <trkpt lat="46.30387" lon="5.97888">
        <ele>1607.46</ele>
        <time>2013-08-02T07:24:31Z</time>
      </trkpt>
      <trkpt lat="46.30381" lon="5.97873">
        <ele>1610.83</ele>
        <time>2013-08-02T07:24:41Z</time>
      </trkpt>
      <trkpt lat="46.30378" lon="5.97856">
        <ele>1609.38</ele>
        <time>2013-08-02T07:24:51Z</time>
      </trkpt>
      <trkpt lat="46.30376" lon="5.97839">
        <ele>1608.9</ele>
        <time>2013-08-02T07:25:01Z</time>
      </trkpt>
      <trkpt lat="46.30378" lon="5.97823">
        <ele>1606.02</ele>
        <time>2013-08-02T07:25:11Z</time>
      </trkpt>
      <trkpt lat="46.30382" lon="5.97807">
        <ele>1603.62</ele>
        <time>2013-08-02T07:25:21Z</time>
      </trkpt>
      <trkpt lat="46.30384" lon="5.97789">
        <ele>1602.17</ele>
        <time>2013-08-02T07:25:31Z</time>
      </trkpt>
      <trkpt lat="46.30386" lon="5.9777">
        <ele>1600.73</ele>
        <time>2013-08-02T07:25:41Z</time>
      </trkpt>
      <trkpt lat="46.30388" lon="5.97754">
        <ele>1597.85</ele>
        <time>2013-08-02T07:25:51Z</time>
      </trkpt>
      <trkpt lat="46.30383" lon="5.97737">
        <ele>1597.37</ele>
        <time>2013-08-02T07:26:01Z</time>
      </trkpt>
      <trkpt lat="46.30377" lon="5.97723">
        <ele>1595.93</ele>
        <time>2013-08-02T07:26:11Z</time>
      </trkpt>
      <trkpt lat="46.30371" lon="5.97708">
        <ele>1592.08</ele>
        <time>2013-08-02T07:26:21Z</time>
      </trkpt>
      <trkpt lat="46.30366" lon="5.97693">
        <ele>1589.2</ele>
        <time>2013-08-02T07:26:31Z</time>
      </trkpt>
      <trkpt lat="46.30363" lon="5.97678">
        <ele>1586.31</ele>
        <time>2013-08-02T07:26:41Z</time>
      </trkpt>
      <trkpt lat="46.3036" lon="5.97664">
        <ele>1585.35</ele>
        <time>2013-08-02T07:26:51Z</time>
      </trkpt>
      <trkpt lat="46.30353" lon="5.9765">
        <ele>1582.47</ele>
        <time>2013-08-02T07:27:01Z</time>
      </trkpt>
      <trkpt lat="46.30349" lon="5.97636">
        <ele>1580.54</ele>
        <time>2013-08-02T07:27:11Z</time>
      </trkpt>
      <trkpt lat="46.30345" lon="5.97619">
        <ele>1578.14</ele>
        <time>2013-08-02T07:27:21Z</time>
      </trkpt>
      <trkpt lat="46.30341" lon="5.97601">
        <ele>1574.3</ele>
        <time>2013-08-02T07:27:31Z</time>
      </trkpt>
      <trkpt lat="46.30332" lon="5.97587">
        <ele>1571.41</ele>
        <time>2013-08-02T07:27:41Z</time>
      </trkpt>
      <trkpt lat="46.30325" lon="5.9757">
        <ele>1568.53</ele>
        <time>2013-08-02T07:27:51Z</time>
      </trkpt>
      <trkpt lat="46.3032" lon="5.97557">
        <ele>1565.16</ele>
        <time>2013-08-02T07:28:01Z</time>
      </trkpt>
      <trkpt lat="46.30314" lon="5.97544">
        <ele>1561.8</ele>
        <time>2013-08-02T07:28:11Z</time>
      </trkpt>
      <trkpt lat="46.30304" lon="5.97534">
        <ele>1557.95</ele>
        <time>2013-08-02T07:28:21Z</time>
      </trkpt>
      <trkpt lat="46.30294" lon="5.97526">
        <ele>1552.67</ele>
        <time>2013-08-02T07:28:31Z</time>
      </trkpt>
      <trkpt lat="46.30285" lon="5.97513">
        <ele>1551.71</ele>
        <time>2013-08-02T07:28:41Z</time>
      </trkpt>
      <trkpt lat="46.3028" lon="5.97498">
        <ele>1548.82</ele>
        <time>2013-08-02T07:28:51Z</time>
      </trkpt>
      <trkpt lat="46.30271" lon="5.97483">
        <ele>1546.42</ele>
        <time>2013-08-02T07:29:01Z</time>
      </trkpt>
      <trkpt lat="46.30261" lon="5.9747">
        <ele>1543.53</ele>
        <time>2013-08-02T07:29:11Z</time>
      </trkpt>
      <trkpt lat="46.30252" lon="5.97458">
        <ele>1542.57</ele>
        <time>2013-08-02T07:29:21Z</time>
      </trkpt>
      <trkpt lat="46.30241" lon="5.97452">
        <ele>1540.17</ele>
        <time>2013-08-02T07:29:31Z</time>
      </trkpt>
      <trkpt lat="46.30228" lon="5.97443">
        <ele>1536.8</ele>
        <time>2013-08-02T07:29:41Z</time>
      </trkpt>
      <trkpt lat="46.30217" lon="5.97441">
        <ele>1533.44</ele>
        <time>2013-08-02T07:29:51Z</time>
      </trkpt>
      <trkpt lat="46.30209" lon="5.97443">
        <ele>1539.21</ele>
        <time>2013-08-02T07:30:01Z</time>
      </trkpt>
      <trkpt lat="46.30198" lon="5.97448">
        <ele>1533.44</ele>
        <time>2013-08-02T07:30:11Z</time>
      </trkpt>
      <trkpt lat="46.30187" lon="5.97458">
        <ele>1535.36</ele>
        <time>2013-08-02T07:30:21Z</time>
      </trkpt>
      <trkpt lat="46.30176" lon="5.97465">
        <ele>1536.32</ele>
        <time>2013-08-02T07:30:31Z</time>
      </trkpt>
      <trkpt lat="46.30162" lon="5.97462">
        <ele>1534.4</ele>
        <time>2013-08-02T07:30:41Z</time>
      </trkpt>
      <trkpt lat="46.30149" lon="5.97456">
        <ele>1534.4</ele>
        <time>2013-08-02T07:30:51Z</time>
      </trkpt>
      <trkpt lat="46.30138" lon="5.97446">
        <ele>1533.44</ele>
        <time>2013-08-02T07:31:01Z</time>
      </trkpt>
      <trkpt lat="46.30131" lon="5.97435">
        <ele>1533.44</ele>
        <time>2013-08-02T07:31:11Z</time>
      </trkpt>
      <trkpt lat="46.30134" lon="5.97437">
        <ele>1533.44</ele>
        <time>2013-08-02T07:31:21Z</time>
      </trkpt>
      <trkpt lat="46.30134" lon="5.97437">
        <ele>1532.48</ele>
        <time>2013-08-02T07:31:31Z</time>
      </trkpt>
      <trkpt lat="46.30127" lon="5.97424">
        <ele>1532</ele>
        <time>2013-08-02T07:31:41Z</time>
      </trkpt>
      <trkpt lat="46.30126" lon="5.97405">
        <ele>1532.96</ele>
        <time>2013-08-02T07:31:51Z</time>
      </trkpt>
      <trkpt lat="46.30122" lon="5.97389">
        <ele>1533.44</ele>
        <time>2013-08-02T07:32:01Z</time>
      </trkpt>
      <trkpt lat="46.30115" lon="5.9737">
        <ele>1532</ele>
        <time>2013-08-02T07:32:11Z</time>
      </trkpt>
      <trkpt lat="46.30109" lon="5.9735">
        <ele>1532.48</ele>
        <time>2013-08-02T07:32:21Z</time>
      </trkpt>
      <trkpt lat="46.30105" lon="5.97334">
        <ele>1531.52</ele>
        <time>2013-08-02T07:32:31Z</time>
      </trkpt>
      <trkpt lat="46.30098" lon="5.97316">
        <ele>1531.52</ele>
        <time>2013-08-02T07:32:41Z</time>
      </trkpt>
      <trkpt lat="46.30091" lon="5.97302">
        <ele>1531.52</ele>
        <time>2013-08-02T07:32:51Z</time>
      </trkpt>
      <trkpt lat="46.30083" lon="5.97292">
        <ele>1532.48</ele>
        <time>2013-08-02T07:33:01Z</time>
      </trkpt>
      <trkpt lat="46.3007" lon="5.97285">
        <ele>1531.04</ele>
        <time>2013-08-02T07:33:11Z</time>
      </trkpt>
      <trkpt lat="46.30059" lon="5.97275">
        <ele>1529.11</ele>
        <time>2013-08-02T07:33:21Z</time>
      </trkpt>
      <trkpt lat="46.30049" lon="5.97263">
        <ele>1529.59</ele>
        <time>2013-08-02T07:33:31Z</time>
      </trkpt>
      <trkpt lat="46.3004" lon="5.97251">
        <ele>1529.59</ele>
        <time>2013-08-02T07:33:41Z</time>
      </trkpt>
      <trkpt lat="46.3003" lon="5.9724">
        <ele>1530.08</ele>
        <time>2013-08-02T07:33:51Z</time>
      </trkpt>
      <trkpt lat="46.3002" lon="5.9723">
        <ele>1527.67</ele>
        <time>2013-08-02T07:34:01Z</time>
      </trkpt>
      <trkpt lat="46.30008" lon="5.97219">
        <ele>1526.23</ele>
        <time>2013-08-02T07:34:11Z</time>
      </trkpt>
      <trkpt lat="46.29995" lon="5.97209">
        <ele>1526.23</ele>
        <time>2013-08-02T07:34:21Z</time>
      </trkpt>
      <trkpt lat="46.29983" lon="5.97199">
        <ele>1525.75</ele>
        <time>2013-08-02T07:34:31Z</time>
      </trkpt>
      <trkpt lat="46.29972" lon="5.97192">
        <ele>1525.27</ele>
        <time>2013-08-02T07:34:41Z</time>
      </trkpt>
      <trkpt lat="46.29962" lon="5.97182">
        <ele>1524.31</ele>
        <time>2013-08-02T07:34:51Z</time>
      </trkpt>
      <trkpt lat="46.2995" lon="5.97171">
        <ele>1523.83</ele>
        <time>2013-08-02T07:35:01Z</time>
      </trkpt>
      <trkpt lat="46.2994" lon="5.97161">
        <ele>1523.83</ele>
        <time>2013-08-02T07:35:11Z</time>
      </trkpt>
      <trkpt lat="46.2993" lon="5.97149">
        <ele>1524.31</ele>
        <time>2013-08-02T07:35:21Z</time>
      </trkpt>
      <trkpt lat="46.2992" lon="5.97137">
        <ele>1523.83</ele>
        <time>2013-08-02T07:35:31Z</time>
      </trkpt>
      <trkpt lat="46.29909" lon="5.97126">
        <ele>1520.94</ele>
        <time>2013-08-02T07:35:41Z</time>
      </trkpt>
      <trkpt lat="46.29899" lon="5.97115">
        <ele>1519.5</ele>
        <time>2013-08-02T07:35:51Z</time>
      </trkpt>
      <trkpt lat="46.29888" lon="5.97103">
        <ele>1519.02</ele>
        <time>2013-08-02T07:36:01Z</time>
      </trkpt>
      <trkpt lat="46.29877" lon="5.97094">
        <ele>1517.1</ele>
        <time>2013-08-02T07:36:11Z</time>
      </trkpt>
      <trkpt lat="46.29867" lon="5.97083">
        <ele>1516.14</ele>
        <time>2013-08-02T07:36:21Z</time>
      </trkpt>
      <trkpt lat="46.29858" lon="5.97072">
        <ele>1516.14</ele>
        <time>2013-08-02T07:36:31Z</time>
      </trkpt>
      <trkpt lat="46.29847" lon="5.9706">
        <ele>1516.62</ele>
        <time>2013-08-02T07:36:41Z</time>
      </trkpt>
      <trkpt lat="46.29838" lon="5.97049">
        <ele>1516.62</ele>
        <time>2013-08-02T07:36:51Z</time>
      </trkpt>
      <trkpt lat="46.29828" lon="5.97038">
        <ele>1517.1</ele>
        <time>2013-08-02T07:37:01Z</time>
      </trkpt>
      <trkpt lat="46.29816" lon="5.97028">
        <ele>1517.1</ele>
        <time>2013-08-02T07:37:11Z</time>
      </trkpt>
      <trkpt lat="46.29803" lon="5.9702">
        <ele>1515.66</ele>
        <time>2013-08-02T07:37:21Z</time>
      </trkpt>
      <trkpt lat="46.29791" lon="5.97012">
        <ele>1516.14</ele>
        <time>2013-08-02T07:37:31Z</time>
      </trkpt>
      <trkpt lat="46.2978" lon="5.97004">
        <ele>1517.58</ele>
        <time>2013-08-02T07:37:41Z</time>
      </trkpt>
      <trkpt lat="46.2977" lon="5.96993">
        <ele>1518.06</ele>
        <time>2013-08-02T07:37:51Z</time>
      </trkpt>
      <trkpt lat="46.2976" lon="5.96984">
        <ele>1518.54</ele>
        <time>2013-08-02T07:38:01Z</time>
      </trkpt>
      <trkpt lat="46.2975" lon="5.96974">
        <ele>1517.1</ele>
        <time>2013-08-02T07:38:11Z</time>
      </trkpt>
      <trkpt lat="46.29738" lon="5.96965">
        <ele>1515.66</ele>
        <time>2013-08-02T07:38:21Z</time>
      </trkpt>
      <trkpt lat="46.29727" lon="5.96954">
        <ele>1514.69</ele>
        <time>2013-08-02T07:38:31Z</time>
      </trkpt>
      <trkpt lat="46.29718" lon="5.9694">
        <ele>1514.69</ele>
        <time>2013-08-02T07:38:41Z</time>
      </trkpt>
      <trkpt lat="46.29709" lon="5.96933">
        <ele>1512.77</ele>
        <time>2013-08-02T07:38:51Z</time>
      </trkpt>
      <trkpt lat="46.29699" lon="5.96926">
        <ele>1515.66</ele>
        <time>2013-08-02T07:39:01Z</time>
      </trkpt>
      <trkpt lat="46.29692" lon="5.96918">
        <ele>1517.58</ele>
        <time>2013-08-02T07:39:11Z</time>
      </trkpt>
      <trkpt lat="46.29682" lon="5.96911">
        <ele>1517.58</ele>
        <time>2013-08-02T07:39:21Z</time>
      </trkpt>
      <trkpt lat="46.29672" lon="5.96906">
        <ele>1518.06</ele>
        <time>2013-08-02T07:39:31Z</time>
      </trkpt>
      <trkpt lat="46.29662" lon="5.96898">
        <ele>1516.62</ele>
        <time>2013-08-02T07:39:41Z</time>
      </trkpt>
      <trkpt lat="46.29654" lon="5.96887">
        <ele>1515.18</ele>
        <time>2013-08-02T07:39:51Z</time>
      </trkpt>
      <trkpt lat="46.29648" lon="5.96879">
        <ele>1513.73</ele>
        <time>2013-08-02T07:40:01Z</time>
      </trkpt>
      <trkpt lat="46.29639" lon="5.96867">
        <ele>1511.81</ele>
        <time>2013-08-02T07:40:11Z</time>
      </trkpt>
      <trkpt lat="46.29633" lon="5.96856">
        <ele>1508.45</ele>
        <time>2013-08-02T07:40:21Z</time>
      </trkpt>
      <trkpt lat="46.29625" lon="5.96846">
        <ele>1507</ele>
        <time>2013-08-02T07:40:31Z</time>
      </trkpt>
      <trkpt lat="46.29616" lon="5.96833">
        <ele>1505.08</ele>
        <time>2013-08-02T07:40:41Z</time>
      </trkpt>
      <trkpt lat="46.29607" lon="5.96819">
        <ele>1504.12</ele>
        <time>2013-08-02T07:40:51Z</time>
      </trkpt>
      <trkpt lat="46.29598" lon="5.96804">
        <ele>1501.72</ele>
        <time>2013-08-02T07:41:01Z</time>
      </trkpt>
      <trkpt lat="46.29595" lon="5.9679">
        <ele>1498.83</ele>
        <time>2013-08-02T07:41:11Z</time>
      </trkpt>
      <trkpt lat="46.29588" lon="5.96774">
        <ele>1496.91</ele>
        <time>2013-08-02T07:41:21Z</time>
      </trkpt>
      <trkpt lat="46.29582" lon="5.96758">
        <ele>1494.99</ele>
        <time>2013-08-02T07:41:31Z</time>
      </trkpt>
      <trkpt lat="46.29576" lon="5.96741">
        <ele>1493.55</ele>
        <time>2013-08-02T07:41:41Z</time>
      </trkpt>
      <trkpt lat="46.29569" lon="5.96727">
        <ele>1490.66</ele>
        <time>2013-08-02T07:41:51Z</time>
      </trkpt>
      <trkpt lat="46.29563" lon="5.96712">
        <ele>1490.18</ele>
        <time>2013-08-02T07:42:01Z</time>
      </trkpt>
      <trkpt lat="46.29555" lon="5.96696">
        <ele>1488.74</ele>
        <time>2013-08-02T07:42:11Z</time>
      </trkpt>
      <trkpt lat="46.29546" lon="5.96683">
        <ele>1488.74</ele>
        <time>2013-08-02T07:42:21Z</time>
      </trkpt>
      <trkpt lat="46.29536" lon="5.96671">
        <ele>1488.74</ele>
        <time>2013-08-02T07:42:31Z</time>
      </trkpt>
      <trkpt lat="46.29526" lon="5.96662">
        <ele>1489.22</ele>
        <time>2013-08-02T07:42:41Z</time>
      </trkpt>
      <trkpt lat="46.29517" lon="5.96651">
        <ele>1490.18</ele>
        <time>2013-08-02T07:42:51Z</time>
      </trkpt>
      <trkpt lat="46.29507" lon="5.9664">
        <ele>1489.22</ele>
        <time>2013-08-02T07:43:01Z</time>
      </trkpt>
      <trkpt lat="46.29498" lon="5.96628">
        <ele>1489.7</ele>
        <time>2013-08-02T07:43:11Z</time>
      </trkpt>
      <trkpt lat="46.2949" lon="5.96616">
        <ele>1489.22</ele>
        <time>2013-08-02T07:43:21Z</time>
      </trkpt>
      <trkpt lat="46.29482" lon="5.96604">
        <ele>1488.74</ele>
        <time>2013-08-02T07:43:31Z</time>
      </trkpt>
      <trkpt lat="46.29472" lon="5.9659">
        <ele>1488.74</ele>
        <time>2013-08-02T07:43:41Z</time>
      </trkpt>
      <trkpt lat="46.29465" lon="5.96577">
        <ele>1487.78</ele>
        <time>2013-08-02T07:43:51Z</time>
      </trkpt>
      <trkpt lat="46.29466" lon="5.96577">
        <ele>1484.89</ele>
        <time>2013-08-02T07:44:01Z</time>
      </trkpt>
      <trkpt lat="46.29466" lon="5.96577">
        <ele>1486.82</ele>
        <time>2013-08-02T07:44:11Z</time>
      </trkpt>
      <trkpt lat="46.29466" lon="5.96571">
        <ele>1487.78</ele>
        <time>2013-08-02T07:44:21Z</time>
      </trkpt>
      <trkpt lat="46.29469" lon="5.96557">
        <ele>1486.34</ele>
        <time>2013-08-02T07:44:31Z</time>
      </trkpt>
      <trkpt lat="46.29465" lon="5.96541">
        <ele>1483.45</ele>
        <time>2013-08-02T07:44:41Z</time>
      </trkpt>
      <trkpt lat="46.29455" lon="5.9653">
        <ele>1481.05</ele>
        <time>2013-08-02T07:44:51Z</time>
      </trkpt>
      <trkpt lat="46.29444" lon="5.9652">
        <ele>1479.61</ele>
        <time>2013-08-02T07:45:01Z</time>
      </trkpt>
      <trkpt lat="46.29441" lon="5.96504">
        <ele>1477.68</ele>
        <time>2013-08-02T07:45:11Z</time>
      </trkpt>
      <trkpt lat="46.29444" lon="5.96495">
        <ele>1476.24</ele>
        <time>2013-08-02T07:45:21Z</time>
      </trkpt>
      <trkpt lat="46.29449" lon="5.9648">
        <ele>1474.8</ele>
        <time>2013-08-02T07:45:31Z</time>
      </trkpt>
      <trkpt lat="46.29457" lon="5.96464">
        <ele>1471.44</ele>
        <time>2013-08-02T07:45:41Z</time>
      </trkpt>
      <trkpt lat="46.29465" lon="5.96449">
        <ele>1469.99</ele>
        <time>2013-08-02T07:45:51Z</time>
      </trkpt>
      <trkpt lat="46.29473" lon="5.96435">
        <ele>1468.55</ele>
        <time>2013-08-02T07:46:01Z</time>
      </trkpt>
      <trkpt lat="46.29482" lon="5.96423">
        <ele>1466.63</ele>
        <time>2013-08-02T07:46:11Z</time>
      </trkpt>
      <trkpt lat="46.29492" lon="5.96413">
        <ele>1463.26</ele>
        <time>2013-08-02T07:46:21Z</time>
      </trkpt>
      <trkpt lat="46.295" lon="5.964">
        <ele>1459.42</ele>
        <time>2013-08-02T07:46:31Z</time>
      </trkpt>
      <trkpt lat="46.29502" lon="5.96382">
        <ele>1457.5</ele>
        <time>2013-08-02T07:46:41Z</time>
      </trkpt>
      <trkpt lat="46.29496" lon="5.96366">
        <ele>1456.53</ele>
        <time>2013-08-02T07:46:51Z</time>
      </trkpt>
      <trkpt lat="46.29487" lon="5.96351">
        <ele>1454.61</ele>
        <time>2013-08-02T07:47:01Z</time>
      </trkpt>
      <trkpt lat="46.29478" lon="5.96338">
        <ele>1452.21</ele>
        <time>2013-08-02T07:47:11Z</time>
      </trkpt>
      <trkpt lat="46.29468" lon="5.96324">
        <ele>1450.77</ele>
        <time>2013-08-02T07:47:21Z</time>
      </trkpt>
      <trkpt lat="46.29459" lon="5.96314">
        <ele>1450.77</ele>
        <time>2013-08-02T07:47:31Z</time>
      </trkpt>
      <trkpt lat="46.29458" lon="5.96312">
        <ele>1451.25</ele>
        <time>2013-08-02T07:47:41Z</time>
      </trkpt>
      <trkpt lat="46.29458" lon="5.96311">
        <ele>1451.25</ele>
        <time>2013-08-02T07:47:51Z</time>
      </trkpt>
      <trkpt lat="46.29457" lon="5.96312">
        <ele>1449.81</ele>
        <time>2013-08-02T07:48:01Z</time>
      </trkpt>
      <trkpt lat="46.29458" lon="5.9631">
        <ele>1451.25</ele>
        <time>2013-08-02T07:48:11Z</time>
      </trkpt>
      <trkpt lat="46.29457" lon="5.9631">
        <ele>1450.29</ele>
        <time>2013-08-02T07:48:21Z</time>
      </trkpt>
      <trkpt lat="46.2945" lon="5.963">
        <ele>1450.77</ele>
        <time>2013-08-02T07:48:31Z</time>
      </trkpt>
      <trkpt lat="46.29442" lon="5.9629">
        <ele>1451.73</ele>
        <time>2013-08-02T07:48:41Z</time>
      </trkpt>
      <trkpt lat="46.29433" lon="5.96278">
        <ele>1451.73</ele>
        <time>2013-08-02T07:48:51Z</time>
      </trkpt>
      <trkpt lat="46.29423" lon="5.96267">
        <ele>1451.73</ele>
        <time>2013-08-02T07:49:01Z</time>
      </trkpt>
      <trkpt lat="46.29413" lon="5.96256">
        <ele>1451.73</ele>
        <time>2013-08-02T07:49:11Z</time>
      </trkpt>
      <trkpt lat="46.29404" lon="5.96243">
        <ele>1452.21</ele>
        <time>2013-08-02T07:49:21Z</time>
      </trkpt>
      <trkpt lat="46.29395" lon="5.9623">
        <ele>1452.21</ele>
        <time>2013-08-02T07:49:31Z</time>
      </trkpt>
      <trkpt lat="46.29387" lon="5.96217">
        <ele>1453.17</ele>
        <time>2013-08-02T07:49:41Z</time>
      </trkpt>
      <trkpt lat="46.29381" lon="5.96203">
        <ele>1454.61</ele>
        <time>2013-08-02T07:49:51Z</time>
      </trkpt>
      <trkpt lat="46.29376" lon="5.96187">
        <ele>1455.57</ele>
        <time>2013-08-02T07:50:01Z</time>
      </trkpt>
      <trkpt lat="46.29376" lon="5.96169">
        <ele>1455.09</ele>
        <time>2013-08-02T07:50:11Z</time>
      </trkpt>
      <trkpt lat="46.29377" lon="5.96151">
        <ele>1454.61</ele>
        <time>2013-08-02T07:50:21Z</time>
      </trkpt>
      <trkpt lat="46.29376" lon="5.96151">
        <ele>1454.13</ele>
        <time>2013-08-02T07:50:31Z</time>
      </trkpt>
      <trkpt lat="46.29375" lon="5.96153">
        <ele>1453.65</ele>
        <time>2013-08-02T07:50:41Z</time>
      </trkpt>
      <trkpt lat="46.29375" lon="5.96153">
        <ele>1452.69</ele>
        <time>2013-08-02T07:50:51Z</time>
      </trkpt>
      <trkpt lat="46.29376" lon="5.96152">
        <ele>1453.17</ele>
        <time>2013-08-02T07:51:01Z</time>
      </trkpt>
      <trkpt lat="46.29375" lon="5.96154">
        <ele>1452.69</ele>
        <time>2013-08-02T07:51:11Z</time>
      </trkpt>
      <trkpt lat="46.29374" lon="5.96153">
        <ele>1453.17</ele>
        <time>2013-08-02T07:51:21Z</time>
      </trkpt>
      <trkpt lat="46.29374" lon="5.96153">
        <ele>1452.21</ele>
        <time>2013-08-02T07:51:31Z</time>
      </trkpt>
      <trkpt lat="46.29375" lon="5.96153">
        <ele>1453.65</ele>
        <time>2013-08-02T07:51:41Z</time>
      </trkpt>
      <trkpt lat="46.29376" lon="5.96154">
        <ele>1454.61</ele>
        <time>2013-08-02T07:51:51Z</time>
      </trkpt>
      <trkpt lat="46.29375" lon="5.96153">
        <ele>1453.65</ele>
        <time>2013-08-02T07:52:01Z</time>
      </trkpt>
      <trkpt lat="46.29375" lon="5.96153">
        <ele>1453.65</ele>
        <time>2013-08-02T07:52:11Z</time>
      </trkpt>
      <trkpt lat="46.29376" lon="5.96155">
        <ele>1452.21</ele>
        <time>2013-08-02T07:52:21Z</time>
      </trkpt>
      <trkpt lat="46.29376" lon="5.96154">
        <ele>1454.13</ele>
        <time>2013-08-02T07:52:31Z</time>
      </trkpt>
      <trkpt lat="46.29376" lon="5.96153">
        <ele>1453.17</ele>
        <time>2013-08-02T07:52:41Z</time>
      </trkpt>
      <trkpt lat="46.29375" lon="5.96154">
        <ele>1453.17</ele>
        <time>2013-08-02T07:52:51Z</time>
      </trkpt>
      <trkpt lat="46.29376" lon="5.96154">
        <ele>1452.69</ele>
        <time>2013-08-02T07:53:01Z</time>
      </trkpt>
      <trkpt lat="46.29376" lon="5.96153">
        <ele>1453.17</ele>
        <time>2013-08-02T07:53:11Z</time>
      </trkpt>
      <trkpt lat="46.29375" lon="5.96151">
        <ele>1453.17</ele>
        <time>2013-08-02T07:53:21Z</time>
      </trkpt>
      <trkpt lat="46.29376" lon="5.96151">
        <ele>1453.65</ele>
        <time>2013-08-02T07:53:31Z</time>
      </trkpt>
      <trkpt lat="46.29376" lon="5.96152">
        <ele>1453.17</ele>
        <time>2013-08-02T07:53:41Z</time>
      </trkpt>
      <trkpt lat="46.29376" lon="5.96153">
        <ele>1453.17</ele>
        <time>2013-08-02T07:53:51Z</time>
      </trkpt>
      <trkpt lat="46.29376" lon="5.96152">
        <ele>1453.17</ele>
        <time>2013-08-02T07:54:01Z</time>
      </trkpt>
      <trkpt lat="46.29375" lon="5.96152">
        <ele>1453.65</ele>
        <time>2013-08-02T07:54:11Z</time>
      </trkpt>
      <trkpt lat="46.29376" lon="5.96153">
        <ele>1453.17</ele>
        <time>2013-08-02T07:54:21Z</time>
      </trkpt>
      <trkpt lat="46.29375" lon="5.96154">
        <ele>1454.13</ele>
        <time>2013-08-02T07:54:31Z</time>
      </trkpt>
      <trkpt lat="46.29376" lon="5.96154">
        <ele>1453.65</ele>
        <time>2013-08-02T07:54:41Z</time>
      </trkpt>
      <trkpt lat="46.29376" lon="5.96153">
        <ele>1453.65</ele>
        <time>2013-08-02T07:54:51Z</time>
      </trkpt>
      <trkpt lat="46.29374" lon="5.96152">
        <ele>1453.17</ele>
        <time>2013-08-02T07:55:01Z</time>
      </trkpt>
      <trkpt lat="46.29374" lon="5.96152">
        <ele>1453.17</ele>
        <time>2013-08-02T07:55:11Z</time>
      </trkpt>
      <trkpt lat="46.29375" lon="5.9615">
        <ele>1453.65</ele>
        <time>2013-08-02T07:55:21Z</time>
      </trkpt>
      <trkpt lat="46.29375" lon="5.9615">
        <ele>1453.65</ele>
        <time>2013-08-02T07:55:31Z</time>
      </trkpt>
      <trkpt lat="46.29375" lon="5.96151">
        <ele>1453.65</ele>
        <time>2013-08-02T07:55:41Z</time>
      </trkpt>
      <trkpt lat="46.29376" lon="5.96153">
        <ele>1453.65</ele>
        <time>2013-08-02T07:55:51Z</time>
      </trkpt>
      <trkpt lat="46.29376" lon="5.96153">
        <ele>1453.65</ele>
        <time>2013-08-02T07:56:01Z</time>
      </trkpt>
      <trkpt lat="46.29376" lon="5.96154">
        <ele>1453.65</ele>
        <time>2013-08-02T07:56:11Z</time>
      </trkpt>
      <trkpt lat="46.29376" lon="5.96153">
        <ele>1453.17</ele>
        <time>2013-08-02T07:56:21Z</time>
      </trkpt>
      <trkpt lat="46.29375" lon="5.96154">
        <ele>1453.65</ele>
        <time>2013-08-02T07:56:31Z</time>
      </trkpt>
      <trkpt lat="46.29374" lon="5.96154">
        <ele>1453.65</ele>
        <time>2013-08-02T07:56:41Z</time>
      </trkpt>
      <trkpt lat="46.29376" lon="5.96152">
        <ele>1453.65</ele>
        <time>2013-08-02T07:56:51Z</time>
      </trkpt>
      <trkpt lat="46.29376" lon="5.96151">
        <ele>1453.17</ele>
        <time>2013-08-02T07:57:01Z</time>
      </trkpt>
      <trkpt lat="46.29377" lon="5.96152">
        <ele>1453.65</ele>
        <time>2013-08-02T07:57:11Z</time>
      </trkpt>
      <trkpt lat="46.29379" lon="5.96153">
        <ele>1453.65</ele>
        <time>2013-08-02T07:57:21Z</time>
      </trkpt>
      <trkpt lat="46.29378" lon="5.96154">
        <ele>1453.17</ele>
        <time>2013-08-02T07:57:31Z</time>
      </trkpt>
      <trkpt lat="46.29376" lon="5.96152">
        <ele>1453.65</ele>
        <time>2013-08-02T07:57:41Z</time>
      </trkpt>
      <trkpt lat="46.29376" lon="5.96152">
        <ele>1453.17</ele>
        <time>2013-08-02T07:57:51Z</time>
      </trkpt>
      <trkpt lat="46.29375" lon="5.96152">
        <ele>1453.17</ele>
        <time>2013-08-02T07:58:01Z</time>
      </trkpt>
      <trkpt lat="46.29376" lon="5.96153">
        <ele>1453.65</ele>
        <time>2013-08-02T07:58:11Z</time>
      </trkpt>
      <trkpt lat="46.29377" lon="5.96153">
        <ele>1453.65</ele>
        <time>2013-08-02T07:58:21Z</time>
      </trkpt>
      <trkpt lat="46.29378" lon="5.96152">
        <ele>1453.17</ele>
        <time>2013-08-02T07:58:31Z</time>
      </trkpt>
      <trkpt lat="46.29376" lon="5.96151">
        <ele>1454.13</ele>
        <time>2013-08-02T07:58:41Z</time>
      </trkpt>
      <trkpt lat="46.29377" lon="5.96153">
        <ele>1454.61</ele>
        <time>2013-08-02T07:58:51Z</time>
      </trkpt>
      <trkpt lat="46.2938" lon="5.96149">
        <ele>1454.61</ele>
        <time>2013-08-02T07:59:01Z</time>
      </trkpt>
      <trkpt lat="46.29388" lon="5.9614">
        <ele>1454.61</ele>
        <time>2013-08-02T07:59:11Z</time>
      </trkpt>
      <trkpt lat="46.294" lon="5.96135">
        <ele>1453.17</ele>
        <time>2013-08-02T07:59:21Z</time>
      </trkpt>
      <trkpt lat="46.29409" lon="5.96132">
        <ele>1451.25</ele>
        <time>2013-08-02T07:59:31Z</time>
      </trkpt>
      <trkpt lat="46.29416" lon="5.96133">
        <ele>1448.84</ele>
        <time>2013-08-02T07:59:41Z</time>
      </trkpt>
      <trkpt lat="46.29427" lon="5.96141">
        <ele>1446.44</ele>
        <time>2013-08-02T07:59:51Z</time>
      </trkpt>
      <trkpt lat="46.2944" lon="5.96147">
        <ele>1444.52</ele>
        <time>2013-08-02T08:00:01Z</time>
      </trkpt>
      <trkpt lat="46.29454" lon="5.96148">
        <ele>1442.6</ele>
        <time>2013-08-02T08:00:11Z</time>
      </trkpt>
      <trkpt lat="46.29467" lon="5.96142">
        <ele>1439.23</ele>
        <time>2013-08-02T08:00:21Z</time>
      </trkpt>
      <trkpt lat="46.29478" lon="5.96133">
        <ele>1438.27</ele>
        <time>2013-08-02T08:00:31Z</time>
      </trkpt>
      <trkpt lat="46.2949" lon="5.96127">
        <ele>1436.35</ele>
        <time>2013-08-02T08:00:41Z</time>
      </trkpt>
      <trkpt lat="46.29503" lon="5.96123">
        <ele>1434.42</ele>
        <time>2013-08-02T08:00:51Z</time>
      </trkpt>
      <trkpt lat="46.29516" lon="5.96115">
        <ele>1433.94</ele>
        <time>2013-08-02T08:01:01Z</time>
      </trkpt>
      <trkpt lat="46.29529" lon="5.96109">
        <ele>1433.46</ele>
        <time>2013-08-02T08:01:11Z</time>
      </trkpt>
      <trkpt lat="46.29541" lon="5.96102">
        <ele>1432.5</ele>
        <time>2013-08-02T08:01:21Z</time>
      </trkpt>
      <trkpt lat="46.29553" lon="5.96092">
        <ele>1431.06</ele>
        <time>2013-08-02T08:01:31Z</time>
      </trkpt>
      <trkpt lat="46.29562" lon="5.96081">
        <ele>1429.62</ele>
        <time>2013-08-02T08:01:41Z</time>
      </trkpt>
      <trkpt lat="46.29572" lon="5.96069">
        <ele>1428.66</ele>
        <time>2013-08-02T08:01:51Z</time>
      </trkpt>
      <trkpt lat="46.29581" lon="5.96053">
        <ele>1425.77</ele>
        <time>2013-08-02T08:02:01Z</time>
      </trkpt>
      <trkpt lat="46.29587" lon="5.96037">
        <ele>1424.33</ele>
        <time>2013-08-02T08:02:11Z</time>
      </trkpt>
      <trkpt lat="46.29594" lon="5.9602">
        <ele>1421.45</ele>
        <time>2013-08-02T08:02:21Z</time>
      </trkpt>
      <trkpt lat="46.29598" lon="5.96004">
        <ele>1419.52</ele>
        <time>2013-08-02T08:02:31Z</time>
      </trkpt>
      <trkpt lat="46.29601" lon="5.9599">
        <ele>1417.12</ele>
        <time>2013-08-02T08:02:41Z</time>
      </trkpt>
      <trkpt lat="46.29605" lon="5.95976">
        <ele>1415.2</ele>
        <time>2013-08-02T08:02:51Z</time>
      </trkpt>
      <trkpt lat="46.29607" lon="5.95968">
        <ele>1410.87</ele>
        <time>2013-08-02T08:03:01Z</time>
      </trkpt>
      <trkpt lat="46.29607" lon="5.95962">
        <ele>1409.43</ele>
        <time>2013-08-02T08:03:11Z</time>
      </trkpt>
      <trkpt lat="46.2961" lon="5.95954">
        <ele>1407.03</ele>
        <time>2013-08-02T08:03:21Z</time>
      </trkpt>
      <trkpt lat="46.29612" lon="5.95944">
        <ele>1405.1</ele>
        <time>2013-08-02T08:03:31Z</time>
      </trkpt>
      <trkpt lat="46.29617" lon="5.95935">
        <ele>1403.66</ele>
        <time>2013-08-02T08:03:41Z</time>
      </trkpt>
      <trkpt lat="46.29622" lon="5.95932">
        <ele>1400.78</ele>
        <time>2013-08-02T08:03:51Z</time>
      </trkpt>
      <trkpt lat="46.29633" lon="5.95923">
        <ele>1399.82</ele>
        <time>2013-08-02T08:04:01Z</time>
      </trkpt>
      <trkpt lat="46.29639" lon="5.95905">
        <ele>1397.89</ele>
        <time>2013-08-02T08:04:11Z</time>
      </trkpt>
      <trkpt lat="46.29642" lon="5.95886">
        <ele>1396.45</ele>
        <time>2013-08-02T08:04:21Z</time>
      </trkpt>
      <trkpt lat="46.29649" lon="5.95869">
        <ele>1394.05</ele>
        <time>2013-08-02T08:04:31Z</time>
      </trkpt>
      <trkpt lat="46.29651" lon="5.95851">
        <ele>1391.65</ele>
        <time>2013-08-02T08:04:41Z</time>
      </trkpt>
      <trkpt lat="46.2965" lon="5.95834">
        <ele>1389.72</ele>
        <time>2013-08-02T08:04:51Z</time>
      </trkpt>
      <trkpt lat="46.29648" lon="5.95818">
        <ele>1387.32</ele>
        <time>2013-08-02T08:05:01Z</time>
      </trkpt>
      <trkpt lat="46.29646" lon="5.958">
        <ele>1386.84</ele>
        <time>2013-08-02T08:05:11Z</time>
      </trkpt>
      <trkpt lat="46.29642" lon="5.95782">
        <ele>1384.44</ele>
        <time>2013-08-02T08:05:21Z</time>
      </trkpt>
      <trkpt lat="46.29635" lon="5.95767">
        <ele>1383.47</ele>
        <time>2013-08-02T08:05:31Z</time>
      </trkpt>
      <trkpt lat="46.29626" lon="5.9575">
        <ele>1382.99</ele>
        <time>2013-08-02T08:05:41Z</time>
      </trkpt>
      <trkpt lat="46.29621" lon="5.95733">
        <ele>1380.59</ele>
        <time>2013-08-02T08:05:51Z</time>
      </trkpt>
      <trkpt lat="46.29623" lon="5.95713">
        <ele>1378.67</ele>
        <time>2013-08-02T08:06:01Z</time>
      </trkpt>
      <trkpt lat="46.29625" lon="5.95695">
        <ele>1378.19</ele>
        <time>2013-08-02T08:06:11Z</time>
      </trkpt>
      <trkpt lat="46.29624" lon="5.95677">
        <ele>1375.3</ele>
        <time>2013-08-02T08:06:21Z</time>
      </trkpt>
      <trkpt lat="46.29627" lon="5.9566">
        <ele>1372.9</ele>
        <time>2013-08-02T08:06:31Z</time>
      </trkpt>
      <trkpt lat="46.29633" lon="5.95651">
        <ele>1370.98</ele>
        <time>2013-08-02T08:06:41Z</time>
      </trkpt>
      <trkpt lat="46.29636" lon="5.95645">
        <ele>1370.98</ele>
        <time>2013-08-02T08:06:51Z</time>
      </trkpt>
      <trkpt lat="46.29637" lon="5.95627">
        <ele>1369.05</ele>
        <time>2013-08-02T08:07:01Z</time>
      </trkpt>
      <trkpt lat="46.29636" lon="5.95607">
        <ele>1367.13</ele>
        <time>2013-08-02T08:07:11Z</time>
      </trkpt>
      <trkpt lat="46.29633" lon="5.95588">
        <ele>1366.17</ele>
        <time>2013-08-02T08:07:21Z</time>
      </trkpt>
      <trkpt lat="46.29635" lon="5.95584">
        <ele>1366.17</ele>
        <time>2013-08-02T08:07:31Z</time>
      </trkpt>
      <trkpt lat="46.29647" lon="5.95584">
        <ele>1363.29</ele>
        <time>2013-08-02T08:07:41Z</time>
      </trkpt>
      <trkpt lat="46.29659" lon="5.95583">
        <ele>1362.33</ele>
        <time>2013-08-02T08:07:51Z</time>
      </trkpt>
      <trkpt lat="46.29673" lon="5.95583">
        <ele>1359.92</ele>
        <time>2013-08-02T08:08:01Z</time>
      </trkpt>
      <trkpt lat="46.29687" lon="5.95587">
        <ele>1358.48</ele>
        <time>2013-08-02T08:08:11Z</time>
      </trkpt>
      <trkpt lat="46.29695" lon="5.95603">
        <ele>1355.12</ele>
        <time>2013-08-02T08:08:21Z</time>
      </trkpt>
      <trkpt lat="46.29707" lon="5.95616">
        <ele>1354.63</ele>
        <time>2013-08-02T08:08:31Z</time>
      </trkpt>
      <trkpt lat="46.29719" lon="5.95617">
        <ele>1352.71</ele>
        <time>2013-08-02T08:08:41Z</time>
      </trkpt>
      <trkpt lat="46.2973" lon="5.95616">
        <ele>1349.83</ele>
        <time>2013-08-02T08:08:51Z</time>
      </trkpt>
      <trkpt lat="46.2974" lon="5.95604">
        <ele>1347.91</ele>
        <time>2013-08-02T08:09:01Z</time>
      </trkpt>
      <trkpt lat="46.29748" lon="5.95591">
        <ele>1344.54</ele>
        <time>2013-08-02T08:09:11Z</time>
      </trkpt>
      <trkpt lat="46.29758" lon="5.95577">
        <ele>1342.14</ele>
        <time>2013-08-02T08:09:21Z</time>
      </trkpt>
      <trkpt lat="46.29768" lon="5.95562">
        <ele>1340.22</ele>
        <time>2013-08-02T08:09:31Z</time>
      </trkpt>
      <trkpt lat="46.29779" lon="5.95549">
        <ele>1337.81</ele>
        <time>2013-08-02T08:09:41Z</time>
      </trkpt>
      <trkpt lat="46.29786" lon="5.95537">
        <ele>1334.93</ele>
        <time>2013-08-02T08:09:51Z</time>
      </trkpt>
      <trkpt lat="46.29795" lon="5.95522">
        <ele>1331.08</ele>
        <time>2013-08-02T08:10:01Z</time>
      </trkpt>
      <trkpt lat="46.29797" lon="5.95506">
        <ele>1328.2</ele>
        <time>2013-08-02T08:10:11Z</time>
      </trkpt>
      <trkpt lat="46.29797" lon="5.95487">
        <ele>1326.76</ele>
        <time>2013-08-02T08:10:21Z</time>
      </trkpt>
      <trkpt lat="46.29799" lon="5.95473">
        <ele>1325.31</ele>
        <time>2013-08-02T08:10:31Z</time>
      </trkpt>
      <trkpt lat="46.298" lon="5.95452">
        <ele>1322.91</ele>
        <time>2013-08-02T08:10:41Z</time>
      </trkpt>
      <trkpt lat="46.29801" lon="5.9543">
        <ele>1320.99</ele>
        <time>2013-08-02T08:10:51Z</time>
      </trkpt>
      <trkpt lat="46.29807" lon="5.95406">
        <ele>1318.1</ele>
        <time>2013-08-02T08:11:01Z</time>
      </trkpt>
      <trkpt lat="46.2981" lon="5.95383">
        <ele>1316.66</ele>
        <time>2013-08-02T08:11:11Z</time>
      </trkpt>
      <trkpt lat="46.29809" lon="5.95363">
        <ele>1313.3</ele>
        <time>2013-08-02T08:11:21Z</time>
      </trkpt>
      <trkpt lat="46.29807" lon="5.95342">
        <ele>1312.34</ele>
        <time>2013-08-02T08:11:31Z</time>
      </trkpt>
      <trkpt lat="46.298" lon="5.95342">
        <ele>1310.41</ele>
        <time>2013-08-02T08:11:41Z</time>
      </trkpt>
      <trkpt lat="46.29796" lon="5.95325">
        <ele>1309.45</ele>
        <time>2013-08-02T08:11:51Z</time>
      </trkpt>
      <trkpt lat="46.29791" lon="5.95305">
        <ele>1306.57</ele>
        <time>2013-08-02T08:12:01Z</time>
      </trkpt>
      <trkpt lat="46.29785" lon="5.95288">
        <ele>1305.61</ele>
        <time>2013-08-02T08:12:11Z</time>
      </trkpt>
      <trkpt lat="46.29782" lon="5.95268">
        <ele>1302.72</ele>
        <time>2013-08-02T08:12:21Z</time>
      </trkpt>
      <trkpt lat="46.29778" lon="5.95249">
        <ele>1300.8</ele>
        <time>2013-08-02T08:12:31Z</time>
      </trkpt>
      <trkpt lat="46.29774" lon="5.95231">
        <ele>1298.4</ele>
        <time>2013-08-02T08:12:41Z</time>
      </trkpt>
      <trkpt lat="46.29774" lon="5.95214">
        <ele>1296.96</ele>
        <time>2013-08-02T08:12:51Z</time>
      </trkpt>
      <trkpt lat="46.29772" lon="5.95211">
        <ele>1296.48</ele>
        <time>2013-08-02T08:13:01Z</time>
      </trkpt>
      <trkpt lat="46.29771" lon="5.95196">
        <ele>1295.03</ele>
        <time>2013-08-02T08:13:11Z</time>
      </trkpt>
      <trkpt lat="46.29768" lon="5.95195">
        <ele>1294.07</ele>
        <time>2013-08-02T08:13:21Z</time>
      </trkpt>
      <trkpt lat="46.29766" lon="5.95181">
        <ele>1292.63</ele>
        <time>2013-08-02T08:13:31Z</time>
      </trkpt>
      <trkpt lat="46.29762" lon="5.95164">
        <ele>1291.19</ele>
        <time>2013-08-02T08:13:41Z</time>
      </trkpt>
      <trkpt lat="46.29761" lon="5.95148">
        <ele>1288.3</ele>
        <time>2013-08-02T08:13:51Z</time>
      </trkpt>
      <trkpt lat="46.29758" lon="5.9513">
        <ele>1285.9</ele>
        <time>2013-08-02T08:14:01Z</time>
      </trkpt>
      <trkpt lat="46.29753" lon="5.9511">
        <ele>1283.02</ele>
        <time>2013-08-02T08:14:11Z</time>
      </trkpt>
      <trkpt lat="46.29748" lon="5.95092">
        <ele>1282.06</ele>
        <time>2013-08-02T08:14:21Z</time>
      </trkpt>
      <trkpt lat="46.29745" lon="5.9508">
        <ele>1279.65</ele>
        <time>2013-08-02T08:14:31Z</time>
      </trkpt>
      <trkpt lat="46.29742" lon="5.95066">
        <ele>1278.69</ele>
        <time>2013-08-02T08:14:41Z</time>
      </trkpt>
      <trkpt lat="46.29736" lon="5.95052">
        <ele>1276.29</ele>
        <time>2013-08-02T08:14:51Z</time>
      </trkpt>
      <trkpt lat="46.29733" lon="5.95033">
        <ele>1273.4</ele>
        <time>2013-08-02T08:15:01Z</time>
      </trkpt>
      <trkpt lat="46.29729" lon="5.95016">
        <ele>1271.96</ele>
        <time>2013-08-02T08:15:11Z</time>
      </trkpt>
      <trkpt lat="46.29725" lon="5.95004">
        <ele>1269.56</ele>
        <time>2013-08-02T08:15:21Z</time>
      </trkpt>
      <trkpt lat="46.29729" lon="5.95002">
        <ele>1269.08</ele>
        <time>2013-08-02T08:15:31Z</time>
      </trkpt>
      <trkpt lat="46.29724" lon="5.9499">
        <ele>1267.16</ele>
        <time>2013-08-02T08:15:41Z</time>
      </trkpt>
      <trkpt lat="46.29719" lon="5.94975">
        <ele>1265.23</ele>
        <time>2013-08-02T08:15:51Z</time>
      </trkpt>
      <trkpt lat="46.29715" lon="5.94961">
        <ele>1262.83</ele>
        <time>2013-08-02T08:16:01Z</time>
      </trkpt>
      <trkpt lat="46.29712" lon="5.9495">
        <ele>1262.83</ele>
        <time>2013-08-02T08:16:11Z</time>
      </trkpt>
      <trkpt lat="46.29708" lon="5.94932">
        <ele>1259.94</ele>
        <time>2013-08-02T08:16:21Z</time>
      </trkpt>
      <trkpt lat="46.29703" lon="5.9491">
        <ele>1257.54</ele>
        <time>2013-08-02T08:16:31Z</time>
      </trkpt>
      <trkpt lat="46.29698" lon="5.94891">
        <ele>1255.62</ele>
        <time>2013-08-02T08:16:41Z</time>
      </trkpt>
      <trkpt lat="46.29692" lon="5.94878">
        <ele>1253.7</ele>
        <time>2013-08-02T08:16:51Z</time>
      </trkpt>
      <trkpt lat="46.29685" lon="5.94856">
        <ele>1252.74</ele>
        <time>2013-08-02T08:17:01Z</time>
      </trkpt>
      <trkpt lat="46.2968" lon="5.94839">
        <ele>1250.33</ele>
        <time>2013-08-02T08:17:11Z</time>
      </trkpt>
      <trkpt lat="46.29676" lon="5.94821">
        <ele>1248.41</ele>
        <time>2013-08-02T08:17:21Z</time>
      </trkpt>
      <trkpt lat="46.29673" lon="5.9481">
        <ele>1246.97</ele>
        <time>2013-08-02T08:17:31Z</time>
      </trkpt>
      <trkpt lat="46.29669" lon="5.94794">
        <ele>1245.53</ele>
        <time>2013-08-02T08:17:41Z</time>
      </trkpt>
      <trkpt lat="46.29666" lon="5.94775">
        <ele>1244.08</ele>
        <time>2013-08-02T08:17:51Z</time>
      </trkpt>
      <trkpt lat="46.29664" lon="5.94758">
        <ele>1241.68</ele>
        <time>2013-08-02T08:18:01Z</time>
      </trkpt>
      <trkpt lat="46.29661" lon="5.94739">
        <ele>1239.28</ele>
        <time>2013-08-02T08:18:11Z</time>
      </trkpt>
      <trkpt lat="46.2966" lon="5.94726">
        <ele>1236.87</ele>
        <time>2013-08-02T08:18:21Z</time>
      </trkpt>
      <trkpt lat="46.29659" lon="5.94723">
        <ele>1237.83</ele>
        <time>2013-08-02T08:18:31Z</time>
      </trkpt>
      <trkpt lat="46.29664" lon="5.94741">
        <ele>1236.87</ele>
        <time>2013-08-02T08:18:41Z</time>
      </trkpt>
      <trkpt lat="46.29677" lon="5.94747">
        <ele>1234.95</ele>
        <time>2013-08-02T08:18:51Z</time>
      </trkpt>
      <trkpt lat="46.29682" lon="5.94742">
        <ele>1234.95</ele>
        <time>2013-08-02T08:19:01Z</time>
      </trkpt>
      <trkpt lat="46.29689" lon="5.94748">
        <ele>1233.99</ele>
        <time>2013-08-02T08:19:11Z</time>
      </trkpt>
      <trkpt lat="46.29701" lon="5.94768">
        <ele>1232.55</ele>
        <time>2013-08-02T08:19:21Z</time>
      </trkpt>
      <trkpt lat="46.29712" lon="5.94782">
        <ele>1231.59</ele>
        <time>2013-08-02T08:19:31Z</time>
      </trkpt>
      <trkpt lat="46.29722" lon="5.94791">
        <ele>1229.66</ele>
        <time>2013-08-02T08:19:41Z</time>
      </trkpt>
      <trkpt lat="46.29736" lon="5.94799">
        <ele>1228.22</ele>
        <time>2013-08-02T08:19:51Z</time>
      </trkpt>
      <trkpt lat="46.29749" lon="5.94803">
        <ele>1227.26</ele>
        <time>2013-08-02T08:20:01Z</time>
      </trkpt>
      <trkpt lat="46.2975" lon="5.94794">
        <ele>1226.3</ele>
        <time>2013-08-02T08:20:11Z</time>
      </trkpt>
      <trkpt lat="46.29753" lon="5.94794">
        <ele>1227.26</ele>
        <time>2013-08-02T08:20:21Z</time>
      </trkpt>
      <trkpt lat="46.29754" lon="5.94795">
        <ele>1226.78</ele>
        <time>2013-08-02T08:20:31Z</time>
      </trkpt>
      <trkpt lat="46.29753" lon="5.94802">
        <ele>1226.78</ele>
        <time>2013-08-02T08:20:41Z</time>
      </trkpt>
      <trkpt lat="46.29763" lon="5.94813">
        <ele>1226.3</ele>
        <time>2013-08-02T08:20:51Z</time>
      </trkpt>
      <trkpt lat="46.29774" lon="5.94819">
        <ele>1225.34</ele>
        <time>2013-08-02T08:21:01Z</time>
      </trkpt>
      <trkpt lat="46.29785" lon="5.94833">
        <ele>1224.86</ele>
        <time>2013-08-02T08:21:11Z</time>
      </trkpt>
      <trkpt lat="46.29795" lon="5.94849">
        <ele>1224.38</ele>
        <time>2013-08-02T08:21:21Z</time>
      </trkpt>
      <trkpt lat="46.29803" lon="5.94863">
        <ele>1221.97</ele>
        <time>2013-08-02T08:21:31Z</time>
      </trkpt>
      <trkpt lat="46.29813" lon="5.94869">
        <ele>1221.01</ele>
        <time>2013-08-02T08:21:41Z</time>
      </trkpt>
      <trkpt lat="46.29822" lon="5.94876">
        <ele>1222.45</ele>
        <time>2013-08-02T08:21:51Z</time>
      </trkpt>
      <trkpt lat="46.29836" lon="5.94881">
        <ele>1220.53</ele>
        <time>2013-08-02T08:22:01Z</time>
      </trkpt>
      <trkpt lat="46.2985" lon="5.94889">
        <ele>1219.09</ele>
        <time>2013-08-02T08:22:11Z</time>
      </trkpt>
      <trkpt lat="46.29862" lon="5.94901">
        <ele>1218.61</ele>
        <time>2013-08-02T08:22:21Z</time>
      </trkpt>
      <trkpt lat="46.29871" lon="5.94904">
        <ele>1217.65</ele>
        <time>2013-08-02T08:22:31Z</time>
      </trkpt>
      <trkpt lat="46.29883" lon="5.94918">
        <ele>1215.24</ele>
        <time>2013-08-02T08:22:41Z</time>
      </trkpt>
      <trkpt lat="46.29894" lon="5.94928">
        <ele>1215.24</ele>
        <time>2013-08-02T08:22:51Z</time>
      </trkpt>
      <trkpt lat="46.29904" lon="5.94941">
        <ele>1213.8</ele>
        <time>2013-08-02T08:23:01Z</time>
      </trkpt>
      <trkpt lat="46.29916" lon="5.9495">
        <ele>1212.84</ele>
        <time>2013-08-02T08:23:11Z</time>
      </trkpt>
      <trkpt lat="46.29928" lon="5.94954">
        <ele>1210.44</ele>
        <time>2013-08-02T08:23:21Z</time>
      </trkpt>
      <trkpt lat="46.29943" lon="5.94951">
        <ele>1209</ele>
        <time>2013-08-02T08:23:31Z</time>
      </trkpt>
      <trkpt lat="46.29959" lon="5.94951">
        <ele>1207.55</ele>
        <time>2013-08-02T08:23:41Z</time>
      </trkpt>
      <trkpt lat="46.29969" lon="5.94956">
        <ele>1206.11</ele>
        <time>2013-08-02T08:23:51Z</time>
      </trkpt>
      <trkpt lat="46.29981" lon="5.94969">
        <ele>1205.15</ele>
        <time>2013-08-02T08:24:01Z</time>
      </trkpt>
      <trkpt lat="46.29991" lon="5.94983">
        <ele>1203.71</ele>
        <time>2013-08-02T08:24:11Z</time>
      </trkpt>
      <trkpt lat="46.30004" lon="5.94989">
        <ele>1202.75</ele>
        <time>2013-08-02T08:24:21Z</time>
      </trkpt>
      <trkpt lat="46.30018" lon="5.94989">
        <ele>1202.27</ele>
        <time>2013-08-02T08:24:31Z</time>
      </trkpt>
      <trkpt lat="46.3003" lon="5.94993">
        <ele>1201.79</ele>
        <time>2013-08-02T08:24:41Z</time>
      </trkpt>
      <trkpt lat="46.3004" lon="5.94995">
        <ele>1201.79</ele>
        <time>2013-08-02T08:24:51Z</time>
      </trkpt>
      <trkpt lat="46.30052" lon="5.94998">
        <ele>1198.9</ele>
        <time>2013-08-02T08:25:01Z</time>
      </trkpt>
      <trkpt lat="46.30053" lon="5.94998">
        <ele>1199.38</ele>
        <time>2013-08-02T08:25:11Z</time>
      </trkpt>
      <trkpt lat="46.30056" lon="5.94983">
        <ele>1197.94</ele>
        <time>2013-08-02T08:25:21Z</time>
      </trkpt>
      <trkpt lat="46.30052" lon="5.94965">
        <ele>1194.58</ele>
        <time>2013-08-02T08:25:31Z</time>
      </trkpt>
      <trkpt lat="46.30047" lon="5.94949">
        <ele>1193.61</ele>
        <time>2013-08-02T08:25:41Z</time>
      </trkpt>
      <trkpt lat="46.3004" lon="5.94928">
        <ele>1191.69</ele>
        <time>2013-08-02T08:25:51Z</time>
      </trkpt>
      <trkpt lat="46.30035" lon="5.94912">
        <ele>1188.81</ele>
        <time>2013-08-02T08:26:01Z</time>
      </trkpt>
      <trkpt lat="46.30031" lon="5.94895">
        <ele>1186.88</ele>
        <time>2013-08-02T08:26:11Z</time>
      </trkpt>
      <trkpt lat="46.30028" lon="5.94888">
        <ele>1185.92</ele>
        <time>2013-08-02T08:26:21Z</time>
      </trkpt>
      <trkpt lat="46.30027" lon="5.9488">
        <ele>1184.48</ele>
        <time>2013-08-02T08:26:31Z</time>
      </trkpt>
      <trkpt lat="46.30025" lon="5.94875">
        <ele>1183.52</ele>
        <time>2013-08-02T08:26:41Z</time>
      </trkpt>
      <trkpt lat="46.30017" lon="5.94857">
        <ele>1182.08</ele>
        <time>2013-08-02T08:26:51Z</time>
      </trkpt>
      <trkpt lat="46.3001" lon="5.94843">
        <ele>1180.64</ele>
        <time>2013-08-02T08:27:01Z</time>
      </trkpt>
      <trkpt lat="46.30001" lon="5.94832">
        <ele>1179.67</ele>
        <time>2013-08-02T08:27:11Z</time>
      </trkpt>
      <trkpt lat="46.29986" lon="5.94828">
        <ele>1177.75</ele>
        <time>2013-08-02T08:27:21Z</time>
      </trkpt>
      <trkpt lat="46.29974" lon="5.94821">
        <ele>1175.83</ele>
        <time>2013-08-02T08:27:31Z</time>
      </trkpt>
      <trkpt lat="46.29966" lon="5.94802">
        <ele>1174.87</ele>
        <time>2013-08-02T08:27:41Z</time>
      </trkpt>
      <trkpt lat="46.2996" lon="5.94788">
        <ele>1172.95</ele>
        <time>2013-08-02T08:27:51Z</time>
      </trkpt>
      <trkpt lat="46.29953" lon="5.94774">
        <ele>1170.54</ele>
        <time>2013-08-02T08:28:01Z</time>
      </trkpt>
      <trkpt lat="46.29953" lon="5.9476">
        <ele>1169.1</ele>
        <time>2013-08-02T08:28:11Z</time>
      </trkpt>
      <trkpt lat="46.29963" lon="5.94764">
        <ele>1167.66</ele>
        <time>2013-08-02T08:28:21Z</time>
      </trkpt>
      <trkpt lat="46.29973" lon="5.94766">
        <ele>1165.26</ele>
        <time>2013-08-02T08:28:31Z</time>
      </trkpt>
      <trkpt lat="46.29985" lon="5.94772">
        <ele>1162.37</ele>
        <time>2013-08-02T08:28:41Z</time>
      </trkpt>
      <trkpt lat="46.29996" lon="5.94772">
        <ele>1160.93</ele>
        <time>2013-08-02T08:28:51Z</time>
      </trkpt>
      <trkpt lat="46.30008" lon="5.94773">
        <ele>1159.01</ele>
        <time>2013-08-02T08:29:01Z</time>
      </trkpt>
      <trkpt lat="46.30019" lon="5.94777">
        <ele>1157.08</ele>
        <time>2013-08-02T08:29:11Z</time>
      </trkpt>
      <trkpt lat="46.3003" lon="5.94778">
        <ele>1155.16</ele>
        <time>2013-08-02T08:29:21Z</time>
      </trkpt>
      <trkpt lat="46.30042" lon="5.94783">
        <ele>1154.2</ele>
        <time>2013-08-02T08:29:31Z</time>
      </trkpt>
      <trkpt lat="46.30053" lon="5.94792">
        <ele>1151.8</ele>
        <time>2013-08-02T08:29:41Z</time>
      </trkpt>
      <trkpt lat="46.30065" lon="5.94801">
        <ele>1150.35</ele>
        <time>2013-08-02T08:29:51Z</time>
      </trkpt>
      <trkpt lat="46.30077" lon="5.94814">
        <ele>1148.91</ele>
        <time>2013-08-02T08:30:01Z</time>
      </trkpt>
      <trkpt lat="46.30089" lon="5.94825">
        <ele>1146.99</ele>
        <time>2013-08-02T08:30:11Z</time>
      </trkpt>
      <trkpt lat="46.301" lon="5.94839">
        <ele>1144.59</ele>
        <time>2013-08-02T08:30:21Z</time>
      </trkpt>
      <trkpt lat="46.30108" lon="5.94852">
        <ele>1143.14</ele>
        <time>2013-08-02T08:30:31Z</time>
      </trkpt>
      <trkpt lat="46.30117" lon="5.9486">
        <ele>1141.22</ele>
        <time>2013-08-02T08:30:41Z</time>
      </trkpt>
      <trkpt lat="46.3013" lon="5.94862">
        <ele>1138.82</ele>
        <time>2013-08-02T08:30:51Z</time>
      </trkpt>
      <trkpt lat="46.30144" lon="5.94861">
        <ele>1136.9</ele>
        <time>2013-08-02T08:31:01Z</time>
      </trkpt>
      <trkpt lat="46.30156" lon="5.94864">
        <ele>1134.49</ele>
        <time>2013-08-02T08:31:11Z</time>
      </trkpt>
      <trkpt lat="46.30169" lon="5.94868">
        <ele>1133.05</ele>
        <time>2013-08-02T08:31:21Z</time>
      </trkpt>
      <trkpt lat="46.30181" lon="5.9488">
        <ele>1131.61</ele>
        <time>2013-08-02T08:31:31Z</time>
      </trkpt>
      <trkpt lat="46.30192" lon="5.94886">
        <ele>1130.65</ele>
        <time>2013-08-02T08:31:41Z</time>
      </trkpt>
      <trkpt lat="46.30203" lon="5.94895">
        <ele>1128.73</ele>
        <time>2013-08-02T08:31:51Z</time>
      </trkpt>
      <trkpt lat="46.30213" lon="5.94903">
        <ele>1126.8</ele>
        <time>2013-08-02T08:32:01Z</time>
      </trkpt>
      <trkpt lat="46.30223" lon="5.94915">
        <ele>1124.88</ele>
        <time>2013-08-02T08:32:11Z</time>
      </trkpt>
      <trkpt lat="46.30234" lon="5.94929">
        <ele>1122.96</ele>
        <time>2013-08-02T08:32:21Z</time>
      </trkpt>
      <trkpt lat="46.3024" lon="5.94945">
        <ele>1121.03</ele>
        <time>2013-08-02T08:32:31Z</time>
      </trkpt>
      <trkpt lat="46.30238" lon="5.94964">
        <ele>1119.59</ele>
        <time>2013-08-02T08:32:41Z</time>
      </trkpt>
      <trkpt lat="46.30244" lon="5.94977">
        <ele>1117.67</ele>
        <time>2013-08-02T08:32:51Z</time>
      </trkpt>
      <trkpt lat="46.30254" lon="5.94981">
        <ele>1116.71</ele>
        <time>2013-08-02T08:33:01Z</time>
      </trkpt>
      <trkpt lat="46.30254" lon="5.94977">
        <ele>1116.23</ele>
        <time>2013-08-02T08:33:11Z</time>
      </trkpt>
      <trkpt lat="46.30258" lon="5.9496">
        <ele>1113.82</ele>
        <time>2013-08-02T08:33:21Z</time>
      </trkpt>
      <trkpt lat="46.3026" lon="5.94946">
        <ele>1111.9</ele>
        <time>2013-08-02T08:33:31Z</time>
      </trkpt>
      <trkpt lat="46.30262" lon="5.94931">
        <ele>1109.02</ele>
        <time>2013-08-02T08:33:41Z</time>
      </trkpt>
      <trkpt lat="46.30264" lon="5.94911">
        <ele>1106.13</ele>
        <time>2013-08-02T08:33:51Z</time>
      </trkpt>
      <trkpt lat="46.30264" lon="5.94897">
        <ele>1104.21</ele>
        <time>2013-08-02T08:34:01Z</time>
      </trkpt>
      <trkpt lat="46.30259" lon="5.94891">
        <ele>1103.25</ele>
        <time>2013-08-02T08:34:11Z</time>
      </trkpt>
      <trkpt lat="46.30252" lon="5.94878">
        <ele>1101.33</ele>
        <time>2013-08-02T08:34:21Z</time>
      </trkpt>
      <trkpt lat="46.30244" lon="5.94863">
        <ele>1097.96</ele>
        <time>2013-08-02T08:34:31Z</time>
      </trkpt>
      <trkpt lat="46.30236" lon="5.94847">
        <ele>1096.04</ele>
        <time>2013-08-02T08:34:41Z</time>
      </trkpt>
      <trkpt lat="46.30227" lon="5.94831">
        <ele>1093.16</ele>
        <time>2013-08-02T08:34:51Z</time>
      </trkpt>
      <trkpt lat="46.30218" lon="5.94819">
        <ele>1092.2</ele>
        <time>2013-08-02T08:35:01Z</time>
      </trkpt>
      <trkpt lat="46.30209" lon="5.94803">
        <ele>1089.79</ele>
        <time>2013-08-02T08:35:11Z</time>
      </trkpt>
      <trkpt lat="46.30201" lon="5.9479">
        <ele>1086.91</ele>
        <time>2013-08-02T08:35:21Z</time>
      </trkpt>
      <trkpt lat="46.30196" lon="5.94775">
        <ele>1084.99</ele>
        <time>2013-08-02T08:35:31Z</time>
      </trkpt>
      <trkpt lat="46.30195" lon="5.94767">
        <ele>1084.99</ele>
        <time>2013-08-02T08:35:41Z</time>
      </trkpt>
      <trkpt lat="46.30184" lon="5.94763">
        <ele>1083.54</ele>
        <time>2013-08-02T08:35:51Z</time>
      </trkpt>
      <trkpt lat="46.30176" lon="5.94754">
        <ele>1080.66</ele>
        <time>2013-08-02T08:36:01Z</time>
      </trkpt>
      <trkpt lat="46.3017" lon="5.94741">
        <ele>1079.7</ele>
        <time>2013-08-02T08:36:11Z</time>
      </trkpt>
      <trkpt lat="46.30165" lon="5.94729">
        <ele>1078.26</ele>
        <time>2013-08-02T08:36:21Z</time>
      </trkpt>
      <trkpt lat="46.3016" lon="5.94713">
        <ele>1076.81</ele>
        <time>2013-08-02T08:36:31Z</time>
      </trkpt>
      <trkpt lat="46.30156" lon="5.94694">
        <ele>1075.37</ele>
        <time>2013-08-02T08:36:41Z</time>
      </trkpt>
      <trkpt lat="46.30148" lon="5.94677">
        <ele>1073.45</ele>
        <time>2013-08-02T08:36:51Z</time>
      </trkpt>
      <trkpt lat="46.30144" lon="5.94671">
        <ele>1072.49</ele>
        <time>2013-08-02T08:37:01Z</time>
      </trkpt>
      <trkpt lat="46.30138" lon="5.94656">
        <ele>1071.05</ele>
        <time>2013-08-02T08:37:11Z</time>
      </trkpt>
      <trkpt lat="46.30135" lon="5.94656">
        <ele>1070.57</ele>
        <time>2013-08-02T08:37:21Z</time>
      </trkpt>
      <trkpt lat="46.30127" lon="5.94642">
        <ele>1068.64</ele>
        <time>2013-08-02T08:37:31Z</time>
      </trkpt>
      <trkpt lat="46.30123" lon="5.94636">
        <ele>1067.2</ele>
        <time>2013-08-02T08:37:41Z</time>
      </trkpt>
      <trkpt lat="46.30121" lon="5.94635">
        <ele>1066.24</ele>
        <time>2013-08-02T08:37:51Z</time>
      </trkpt>
      <trkpt lat="46.30121" lon="5.94633">
        <ele>1066.24</ele>
        <time>2013-08-02T08:38:01Z</time>
      </trkpt>
      <trkpt lat="46.30119" lon="5.94634">
        <ele>1066.72</ele>
        <time>2013-08-02T08:38:11Z</time>
      </trkpt>
      <trkpt lat="46.30122" lon="5.94631">
        <ele>1066.24</ele>
        <time>2013-08-02T08:38:21Z</time>
      </trkpt>
      <trkpt lat="46.30118" lon="5.94634">
        <ele>1065.28</ele>
        <time>2013-08-02T08:38:31Z</time>
      </trkpt>
      <trkpt lat="46.30119" lon="5.94633">
        <ele>1065.76</ele>
        <time>2013-08-02T08:38:41Z</time>
      </trkpt>
      <trkpt lat="46.30121" lon="5.94632">
        <ele>1065.76</ele>
        <time>2013-08-02T08:38:51Z</time>
      </trkpt>
      <trkpt lat="46.30121" lon="5.94631">
        <ele>1066.24</ele>
        <time>2013-08-02T08:39:01Z</time>
      </trkpt>
      <trkpt lat="46.30121" lon="5.94631">
        <ele>1066.24</ele>
        <time>2013-08-02T08:39:11Z</time>
      </trkpt>
      <trkpt lat="46.30123" lon="5.94634">
        <ele>1065.28</ele>
        <time>2013-08-02T08:39:21Z</time>
      </trkpt>
      <trkpt lat="46.30124" lon="5.94634">
        <ele>1066.24</ele>
        <time>2013-08-02T08:39:31Z</time>
      </trkpt>
      <trkpt lat="46.30124" lon="5.94635">
        <ele>1065.76</ele>
        <time>2013-08-02T08:39:41Z</time>
      </trkpt>
      <trkpt lat="46.30123" lon="5.94639">
        <ele>1065.28</ele>
        <time>2013-08-02T08:39:51Z</time>
      </trkpt>
      <trkpt lat="46.30123" lon="5.94639">
        <ele>1065.28</ele>
        <time>2013-08-02T08:40:01Z</time>
      </trkpt>
      <trkpt lat="46.30122" lon="5.94639">
        <ele>1065.76</ele>
        <time>2013-08-02T08:40:11Z</time>
      </trkpt>
      <trkpt lat="46.30121" lon="5.94637">
        <ele>1065.76</ele>
        <time>2013-08-02T08:40:21Z</time>
      </trkpt>
      <trkpt lat="46.30122" lon="5.94637">
        <ele>1066.24</ele>
        <time>2013-08-02T08:40:31Z</time>
      </trkpt>
      <trkpt lat="46.30123" lon="5.94634">
        <ele>1065.76</ele>
        <time>2013-08-02T08:40:41Z</time>
      </trkpt>
      <trkpt lat="46.30125" lon="5.94631">
        <ele>1065.76</ele>
        <time>2013-08-02T08:40:51Z</time>
      </trkpt>
      <trkpt lat="46.30124" lon="5.94633">
        <ele>1065.76</ele>
        <time>2013-08-02T08:41:01Z</time>
      </trkpt>
      <trkpt lat="46.3012" lon="5.94635">
        <ele>1065.76</ele>
        <time>2013-08-02T08:41:11Z</time>
      </trkpt>
      <trkpt lat="46.30119" lon="5.94635">
        <ele>1065.28</ele>
        <time>2013-08-02T08:41:21Z</time>
      </trkpt>
      <trkpt lat="46.30122" lon="5.94634">
        <ele>1065.28</ele>
        <time>2013-08-02T08:41:31Z</time>
      </trkpt>
      <trkpt lat="46.30122" lon="5.94633">
        <ele>1065.76</ele>
        <time>2013-08-02T08:41:41Z</time>
      </trkpt>
      <trkpt lat="46.30123" lon="5.94635">
        <ele>1065.28</ele>
        <time>2013-08-02T08:41:51Z</time>
      </trkpt>
      <trkpt lat="46.30124" lon="5.94634">
        <ele>1065.76</ele>
        <time>2013-08-02T08:42:01Z</time>
      </trkpt>
      <trkpt lat="46.30125" lon="5.94634">
        <ele>1065.28</ele>
        <time>2013-08-02T08:42:11Z</time>
      </trkpt>
      <trkpt lat="46.30126" lon="5.94634">
        <ele>1065.28</ele>
        <time>2013-08-02T08:42:21Z</time>
      </trkpt>
      <trkpt lat="46.30126" lon="5.94633">
        <ele>1065.28</ele>
        <time>2013-08-02T08:42:31Z</time>
      </trkpt>
      <trkpt lat="46.30123" lon="5.94633">
        <ele>1065.28</ele>
        <time>2013-08-02T08:42:41Z</time>
      </trkpt>
      <trkpt lat="46.30122" lon="5.94639">
        <ele>1066.24</ele>
        <time>2013-08-02T08:42:51Z</time>
      </trkpt>
      <trkpt lat="46.3012" lon="5.94635">
        <ele>1065.76</ele>
        <time>2013-08-02T08:43:01Z</time>
      </trkpt>
      <trkpt lat="46.30118" lon="5.94636">
        <ele>1065.76</ele>
        <time>2013-08-02T08:43:11Z</time>
      </trkpt>
      <trkpt lat="46.30115" lon="5.94639">
        <ele>1065.76</ele>
        <time>2013-08-02T08:43:21Z</time>
      </trkpt>
      <trkpt lat="46.30117" lon="5.94643">
        <ele>1066.24</ele>
        <time>2013-08-02T08:43:31Z</time>
      </trkpt>
      <trkpt lat="46.30117" lon="5.94647">
        <ele>1065.76</ele>
        <time>2013-08-02T08:43:41Z</time>
      </trkpt>
      <trkpt lat="46.30116" lon="5.94648">
        <ele>1066.72</ele>
        <time>2013-08-02T08:43:51Z</time>
      </trkpt>
      <trkpt lat="46.30116" lon="5.94653">
        <ele>1065.76</ele>
        <time>2013-08-02T08:44:01Z</time>
      </trkpt>
      <trkpt lat="46.30116" lon="5.94647">
        <ele>1066.72</ele>
        <time>2013-08-02T08:44:11Z</time>
      </trkpt>
      <trkpt lat="46.30115" lon="5.94643">
        <ele>1066.72</ele>
        <time>2013-08-02T08:44:21Z</time>
      </trkpt>
      <trkpt lat="46.30115" lon="5.94641">
        <ele>1066.24</ele>
        <time>2013-08-02T08:44:31Z</time>
      </trkpt>
      <trkpt lat="46.30118" lon="5.94642">
        <ele>1066.24</ele>
        <time>2013-08-02T08:44:41Z</time>
      </trkpt>
      <trkpt lat="46.30118" lon="5.94626">
        <ele>1065.76</ele>
        <time>2013-08-02T08:44:51Z</time>
      </trkpt>
      <trkpt lat="46.30111" lon="5.9461">
        <ele>1063.84</ele>
        <time>2013-08-02T08:45:01Z</time>
      </trkpt>
      <trkpt lat="46.30105" lon="5.94595">
        <ele>1061.43</ele>
        <time>2013-08-02T08:45:11Z</time>
      </trkpt>
      <trkpt lat="46.30097" lon="5.9458">
        <ele>1058.55</ele>
        <time>2013-08-02T08:45:21Z</time>
      </trkpt>
      <trkpt lat="46.30086" lon="5.94568">
        <ele>1057.59</ele>
        <time>2013-08-02T08:45:31Z</time>
      </trkpt>
      <trkpt lat="46.30075" lon="5.94559">
        <ele>1055.18</ele>
        <time>2013-08-02T08:45:41Z</time>
      </trkpt>
      <trkpt lat="46.30069" lon="5.94548">
        <ele>1053.74</ele>
        <time>2013-08-02T08:45:51Z</time>
      </trkpt>
      <trkpt lat="46.30064" lon="5.94536">
        <ele>1050.38</ele>
        <time>2013-08-02T08:46:01Z</time>
      </trkpt>
      <trkpt lat="46.30061" lon="5.94524">
        <ele>1047.01</ele>
        <time>2013-08-02T08:46:11Z</time>
      </trkpt>
      <trkpt lat="46.30053" lon="5.94514">
        <ele>1045.09</ele>
        <time>2013-08-02T08:46:21Z</time>
      </trkpt>
      <trkpt lat="46.30046" lon="5.94505">
        <ele>1042.69</ele>
        <time>2013-08-02T08:46:31Z</time>
      </trkpt>
      <trkpt lat="46.30035" lon="5.9449">
        <ele>1040.76</ele>
        <time>2013-08-02T08:46:41Z</time>
      </trkpt>
      <trkpt lat="46.30028" lon="5.9448">
        <ele>1037.4</ele>
        <time>2013-08-02T08:46:51Z</time>
      </trkpt>
      <trkpt lat="46.30024" lon="5.94472">
        <ele>1034.52</ele>
        <time>2013-08-02T08:47:01Z</time>
      </trkpt>
      <trkpt lat="46.3002" lon="5.94462">
        <ele>1031.63</ele>
        <time>2013-08-02T08:47:11Z</time>
      </trkpt>
      <trkpt lat="46.30019" lon="5.94451">
        <ele>1029.23</ele>
        <time>2013-08-02T08:47:21Z</time>
      </trkpt>
      <trkpt lat="46.30016" lon="5.94436">
        <ele>1025.86</ele>
        <time>2013-08-02T08:47:31Z</time>
      </trkpt>
      <trkpt lat="46.30012" lon="5.94422">
        <ele>1024.9</ele>
        <time>2013-08-02T08:47:41Z</time>
      </trkpt>
      <trkpt lat="46.30004" lon="5.94405">
        <ele>1022.5</ele>
        <time>2013-08-02T08:47:51Z</time>
      </trkpt>
      <trkpt lat="46.29996" lon="5.94384">
        <ele>1020.1</ele>
        <time>2013-08-02T08:48:01Z</time>
      </trkpt>
      <trkpt lat="46.29995" lon="5.94371">
        <ele>1018.17</ele>
        <time>2013-08-02T08:48:11Z</time>
      </trkpt>
      <trkpt lat="46.30004" lon="5.94364">
        <ele>1015.29</ele>
        <time>2013-08-02T08:48:21Z</time>
      </trkpt>
      <trkpt lat="46.30012" lon="5.94362">
        <ele>1012.41</ele>
        <time>2013-08-02T08:48:31Z</time>
      </trkpt>
      <trkpt lat="46.30023" lon="5.94362">
        <ele>1010</ele>
        <time>2013-08-02T08:48:41Z</time>
      </trkpt>
      <trkpt lat="46.30032" lon="5.94362">
        <ele>1006.64</ele>
        <time>2013-08-02T08:48:51Z</time>
      </trkpt>
      <trkpt lat="46.30039" lon="5.94348">
        <ele>1003.27</ele>
        <time>2013-08-02T08:49:01Z</time>
      </trkpt>
      <trkpt lat="46.30038" lon="5.94335">
        <ele>1000.39</ele>
        <time>2013-08-02T08:49:11Z</time>
      </trkpt>
      <trkpt lat="46.30031" lon="5.94326">
        <ele>998.47</ele>
        <time>2013-08-02T08:49:21Z</time>
      </trkpt>
      <trkpt lat="46.30023" lon="5.94317">
        <ele>996.54</ele>
        <time>2013-08-02T08:49:31Z</time>
      </trkpt>
      <trkpt lat="46.30015" lon="5.94312">
        <ele>993.66</ele>
        <time>2013-08-02T08:49:41Z</time>
      </trkpt>
      <trkpt lat="46.30015" lon="5.94308">
        <ele>993.18</ele>
        <time>2013-08-02T08:49:51Z</time>
      </trkpt>
      <trkpt lat="46.30011" lon="5.94306">
        <ele>992.22</ele>
        <time>2013-08-02T08:50:01Z</time>
      </trkpt>
      <trkpt lat="46.30006" lon="5.94295">
        <ele>990.3</ele>
        <time>2013-08-02T08:50:11Z</time>
      </trkpt>
      <trkpt lat="46.30003" lon="5.94282">
        <ele>987.41</ele>
        <time>2013-08-02T08:50:21Z</time>
      </trkpt>
      <trkpt lat="46.3" lon="5.94273">
        <ele>985.01</ele>
        <time>2013-08-02T08:50:31Z</time>
      </trkpt>
      <trkpt lat="46.29998" lon="5.94266">
        <ele>982.6</ele>
        <time>2013-08-02T08:50:41Z</time>
      </trkpt>
      <trkpt lat="46.29996" lon="5.94254">
        <ele>981.16</ele>
        <time>2013-08-02T08:50:51Z</time>
      </trkpt>
      <trkpt lat="46.30001" lon="5.94244">
        <ele>980.2</ele>
        <time>2013-08-02T08:51:01Z</time>
      </trkpt>
      <trkpt lat="46.3001" lon="5.94244">
        <ele>979.24</ele>
        <time>2013-08-02T08:51:11Z</time>
      </trkpt>
      <trkpt lat="46.30018" lon="5.94249">
        <ele>976.36</ele>
        <time>2013-08-02T08:51:21Z</time>
      </trkpt>
      <trkpt lat="46.30029" lon="5.94251">
        <ele>973.95</ele>
        <time>2013-08-02T08:51:31Z</time>
      </trkpt>
      <trkpt lat="46.30039" lon="5.94252">
        <ele>971.55</ele>
        <time>2013-08-02T08:51:41Z</time>
      </trkpt>
      <trkpt lat="46.30043" lon="5.94254">
        <ele>971.07</ele>
        <time>2013-08-02T08:51:51Z</time>
      </trkpt>
      <trkpt lat="46.30052" lon="5.9425">
        <ele>969.15</ele>
        <time>2013-08-02T08:52:01Z</time>
      </trkpt>
      <trkpt lat="46.30064" lon="5.94247">
        <ele>966.74</ele>
        <time>2013-08-02T08:52:11Z</time>
      </trkpt>
      <trkpt lat="46.30074" lon="5.94245">
        <ele>964.34</ele>
        <time>2013-08-02T08:52:21Z</time>
      </trkpt>
      <trkpt lat="46.30084" lon="5.94237">
        <ele>961.46</ele>
        <time>2013-08-02T08:52:31Z</time>
      </trkpt>
      <trkpt lat="46.30091" lon="5.94227">
        <ele>957.61</ele>
        <time>2013-08-02T08:52:41Z</time>
      </trkpt>
      <trkpt lat="46.30098" lon="5.9422">
        <ele>954.25</ele>
        <time>2013-08-02T08:52:51Z</time>
      </trkpt>
      <trkpt lat="46.30102" lon="5.94214">
        <ele>951.36</ele>
        <time>2013-08-02T08:53:01Z</time>
      </trkpt>
      <trkpt lat="46.301" lon="5.94199">
        <ele>948.48</ele>
        <time>2013-08-02T08:53:11Z</time>
      </trkpt>
      <trkpt lat="46.30096" lon="5.94186">
        <ele>946.07</ele>
        <time>2013-08-02T08:53:21Z</time>
      </trkpt>
      <trkpt lat="46.30093" lon="5.94171">
        <ele>943.67</ele>
        <time>2013-08-02T08:53:31Z</time>
      </trkpt>
      <trkpt lat="46.30087" lon="5.94158">
        <ele>941.27</ele>
        <time>2013-08-02T08:53:41Z</time>
      </trkpt>
      <trkpt lat="46.30083" lon="5.94143">
        <ele>938.86</ele>
        <time>2013-08-02T08:53:51Z</time>
      </trkpt>
      <trkpt lat="46.30085" lon="5.94124">
        <ele>935.98</ele>
        <time>2013-08-02T08:54:01Z</time>
      </trkpt>
      <trkpt lat="46.30099" lon="5.94122">
        <ele>933.58</ele>
        <time>2013-08-02T08:54:11Z</time>
      </trkpt>
      <trkpt lat="46.30108" lon="5.94122">
        <ele>931.65</ele>
        <time>2013-08-02T08:54:21Z</time>
      </trkpt>
      <trkpt lat="46.30122" lon="5.94122">
        <ele>930.21</ele>
        <time>2013-08-02T08:54:31Z</time>
      </trkpt>
      <trkpt lat="46.30133" lon="5.94119">
        <ele>927.81</ele>
        <time>2013-08-02T08:54:41Z</time>
      </trkpt>
      <trkpt lat="46.30145" lon="5.94114">
        <ele>926.85</ele>
        <time>2013-08-02T08:54:51Z</time>
      </trkpt>
      <trkpt lat="46.30157" lon="5.9411">
        <ele>924.93</ele>
        <time>2013-08-02T08:55:01Z</time>
      </trkpt>
      <trkpt lat="46.3017" lon="5.94107">
        <ele>922.04</ele>
        <time>2013-08-02T08:55:11Z</time>
      </trkpt>
      <trkpt lat="46.30182" lon="5.94103">
        <ele>919.64</ele>
        <time>2013-08-02T08:55:21Z</time>
      </trkpt>
      <trkpt lat="46.30195" lon="5.94098">
        <ele>916.75</ele>
        <time>2013-08-02T08:55:31Z</time>
      </trkpt>
      <trkpt lat="46.30209" lon="5.94097">
        <ele>915.31</ele>
        <time>2013-08-02T08:55:41Z</time>
      </trkpt>
      <trkpt lat="46.30222" lon="5.94099">
        <ele>914.83</ele>
        <time>2013-08-02T08:55:51Z</time>
      </trkpt>
      <trkpt lat="46.30234" lon="5.94097">
        <ele>912.91</ele>
        <time>2013-08-02T08:56:01Z</time>
      </trkpt>
      <trkpt lat="46.30248" lon="5.94091">
        <ele>911.47</ele>
        <time>2013-08-02T08:56:11Z</time>
      </trkpt>
      <trkpt lat="46.30256" lon="5.94083">
        <ele>910.51</ele>
        <time>2013-08-02T08:56:21Z</time>
      </trkpt>
      <trkpt lat="46.30262" lon="5.94082">
        <ele>910.99</ele>
        <time>2013-08-02T08:56:31Z</time>
      </trkpt>
      <trkpt lat="46.30261" lon="5.94081">
        <ele>910.99</ele>
        <time>2013-08-02T08:56:41Z</time>
      </trkpt>
      <trkpt lat="46.30262" lon="5.94083">
        <ele>910.99</ele>
        <time>2013-08-02T08:56:51Z</time>
      </trkpt>
      <trkpt lat="46.30262" lon="5.94085">
        <ele>910.99</ele>
        <time>2013-08-02T08:57:01Z</time>
      </trkpt>
      <trkpt lat="46.30263" lon="5.94086">
        <ele>910.51</ele>
        <time>2013-08-02T08:57:11Z</time>
      </trkpt>
      <trkpt lat="46.30264" lon="5.94086">
        <ele>910.51</ele>
        <time>2013-08-02T08:57:21Z</time>
      </trkpt>
      <trkpt lat="46.30259" lon="5.94083">
        <ele>910.51</ele>
        <time>2013-08-02T08:57:31Z</time>
      </trkpt>
      <trkpt lat="46.3026" lon="5.94084">
        <ele>909.54</ele>
        <time>2013-08-02T08:57:41Z</time>
      </trkpt>
      <trkpt lat="46.30262" lon="5.94084">
        <ele>909.54</ele>
        <time>2013-08-02T08:57:51Z</time>
      </trkpt>
      <trkpt lat="46.30263" lon="5.94084">
        <ele>909.54</ele>
        <time>2013-08-02T08:58:01Z</time>
      </trkpt>
      <trkpt lat="46.3026" lon="5.94085">
        <ele>909.54</ele>
        <time>2013-08-02T08:58:11Z</time>
      </trkpt>
      <trkpt lat="46.30259" lon="5.94085">
        <ele>909.54</ele>
        <time>2013-08-02T08:58:21Z</time>
      </trkpt>
      <trkpt lat="46.3026" lon="5.94084">
        <ele>910.99</ele>
        <time>2013-08-02T08:58:31Z</time>
      </trkpt>
    </trkseg>
  </trk>
</gpx>